<?xml version="1.0" encoding="UTF-8" standalone="no" ?>
<gpx xmlns="http://www.topografix.com/GPX/1/1" xmlns:xsi="http://www.w3.org/2001/XMLSchema-instance" xsi:schemaLocation="http://www.topografix.com/GPX/1/1 http://www.topografix.com/GPX/1/1/gpx.xsd" version="1.1" creator="VisuGPX - https://www.visugpx.com">
  <metadata>
    <name>CARREFOUR DE LUYNES 8</name>
  </metadata>
  <trk>
    <name><![CDATA[CARREFOUR DE LUYNES 8]]></name>
    <trkseg>
      <trkpt lat="48.59089" lon="1.96661">
        <ele>85.69</ele>
        <time>2017-09-19T07:00:50Z</time>
      </trkpt>
      <trkpt lat="48.5909" lon="1.96661">
        <ele>85.69</ele>
        <time>2017-09-19T07:00:51Z</time>
      </trkpt>
      <trkpt lat="48.59094" lon="1.96674">
        <ele>85.69</ele>
        <time>2017-09-19T07:01:11Z</time>
      </trkpt>
      <trkpt lat="48.59156" lon="1.96615">
        <ele>86.66</ele>
        <time>2017-09-19T07:01:41Z</time>
      </trkpt>
      <trkpt lat="48.59163" lon="1.9661">
        <ele>89.54</ele>
        <time>2017-09-19T07:01:47Z</time>
      </trkpt>
      <trkpt lat="48.59167" lon="1.96607">
        <ele>92.9</ele>
        <time>2017-09-19T07:01:52Z</time>
      </trkpt>
      <trkpt lat="48.59173" lon="1.96606">
        <ele>96.27</ele>
        <time>2017-09-19T07:01:58Z</time>
      </trkpt>
      <trkpt lat="48.59173" lon="1.96607">
        <ele>98.67</ele>
        <time>2017-09-19T07:02:03Z</time>
      </trkpt>
      <trkpt lat="48.59172" lon="1.9661">
        <ele>102.04</ele>
        <time>2017-09-19T07:02:10Z</time>
      </trkpt>
      <trkpt lat="48.59171" lon="1.96613">
        <ele>104.92</ele>
        <time>2017-09-19T07:02:24Z</time>
      </trkpt>
      <trkpt lat="48.59171" lon="1.9662">
        <ele>108.29</ele>
        <time>2017-09-19T07:02:37Z</time>
      </trkpt>
      <trkpt lat="48.59172" lon="1.96614">
        <ele>110.21</ele>
        <time>2017-09-19T07:02:48Z</time>
      </trkpt>
      <trkpt lat="48.59171" lon="1.96611">
        <ele>113.09</ele>
        <time>2017-09-19T07:03:06Z</time>
      </trkpt>
      <trkpt lat="48.5917" lon="1.96609">
        <ele>115.01</ele>
        <time>2017-09-19T07:03:25Z</time>
      </trkpt>
      <trkpt lat="48.59173" lon="1.96608">
        <ele>116.46</ele>
        <time>2017-09-19T07:03:41Z</time>
      </trkpt>
      <trkpt lat="48.59176" lon="1.96608">
        <ele>115.5</ele>
        <time>2017-09-19T07:04:07Z</time>
      </trkpt>
      <trkpt lat="48.59178" lon="1.96608">
        <ele>115.98</ele>
        <time>2017-09-19T07:04:31Z</time>
      </trkpt>
      <trkpt lat="48.59177" lon="1.96608">
        <ele>115.98</ele>
        <time>2017-09-19T07:04:52Z</time>
      </trkpt>
      <trkpt lat="48.59177" lon="1.96608">
        <ele>116.46</ele>
        <time>2017-09-19T07:05:12Z</time>
      </trkpt>
      <trkpt lat="48.59175" lon="1.9661">
        <ele>115.5</ele>
        <time>2017-09-19T07:05:25Z</time>
      </trkpt>
      <trkpt lat="48.59175" lon="1.9661">
        <ele>115.98</ele>
        <time>2017-09-19T07:05:46Z</time>
      </trkpt>
      <trkpt lat="48.59174" lon="1.96608">
        <ele>115.5</ele>
        <time>2017-09-19T07:06:12Z</time>
      </trkpt>
      <trkpt lat="48.59174" lon="1.96607">
        <ele>115.98</ele>
        <time>2017-09-19T07:06:30Z</time>
      </trkpt>
      <trkpt lat="48.59175" lon="1.96605">
        <ele>115.98</ele>
        <time>2017-09-19T07:06:45Z</time>
      </trkpt>
      <trkpt lat="48.59177" lon="1.96603">
        <ele>115.98</ele>
        <time>2017-09-19T07:06:56Z</time>
      </trkpt>
      <trkpt lat="48.59177" lon="1.96599">
        <ele>115.98</ele>
        <time>2017-09-19T07:07:09Z</time>
      </trkpt>
      <trkpt lat="48.59177" lon="1.96599">
        <ele>115.01</ele>
        <time>2017-09-19T07:07:36Z</time>
      </trkpt>
      <trkpt lat="48.59177" lon="1.96599">
        <ele>119.82</ele>
        <time>2017-09-19T07:07:45Z</time>
      </trkpt>
      <trkpt lat="48.59177" lon="1.96599">
        <ele>115.5</ele>
        <time>2017-09-19T07:07:46Z</time>
      </trkpt>
      <trkpt lat="48.59176" lon="1.96598">
        <ele>115.5</ele>
        <time>2017-09-19T07:08:00Z</time>
      </trkpt>
      <trkpt lat="48.59176" lon="1.96598">
        <ele>110.69</ele>
        <time>2017-09-19T07:08:10Z</time>
      </trkpt>
      <trkpt lat="48.59176" lon="1.96598">
        <ele>119.82</ele>
        <time>2017-09-19T07:08:11Z</time>
      </trkpt>
      <trkpt lat="48.59175" lon="1.96598">
        <ele>112.13</ele>
        <time>2017-09-19T07:08:12Z</time>
      </trkpt>
      <trkpt lat="48.59175" lon="1.96598">
        <ele>118.86</ele>
        <time>2017-09-19T07:08:13Z</time>
      </trkpt>
      <trkpt lat="48.59175" lon="1.96598">
        <ele>110.21</ele>
        <time>2017-09-19T07:08:14Z</time>
      </trkpt>
      <trkpt lat="48.59175" lon="1.96598">
        <ele>120.3</ele>
        <time>2017-09-19T07:08:15Z</time>
      </trkpt>
      <trkpt lat="48.59175" lon="1.96598">
        <ele>110.69</ele>
        <time>2017-09-19T07:08:16Z</time>
      </trkpt>
      <trkpt lat="48.59175" lon="1.96598">
        <ele>119.82</ele>
        <time>2017-09-19T07:08:17Z</time>
      </trkpt>
      <trkpt lat="48.59175" lon="1.96599">
        <ele>112.13</ele>
        <time>2017-09-19T07:08:18Z</time>
      </trkpt>
      <trkpt lat="48.59174" lon="1.96599">
        <ele>118.38</ele>
        <time>2017-09-19T07:08:19Z</time>
      </trkpt>
      <trkpt lat="48.59175" lon="1.96599">
        <ele>114.53</ele>
        <time>2017-09-19T07:08:20Z</time>
      </trkpt>
      <trkpt lat="48.59174" lon="1.96599">
        <ele>120.3</ele>
        <time>2017-09-19T07:08:24Z</time>
      </trkpt>
      <trkpt lat="48.59174" lon="1.966">
        <ele>116.46</ele>
        <time>2017-09-19T07:08:26Z</time>
      </trkpt>
      <trkpt lat="48.59173" lon="1.966">
        <ele>115.98</ele>
        <time>2017-09-19T07:08:41Z</time>
      </trkpt>
      <trkpt lat="48.59172" lon="1.966">
        <ele>115.98</ele>
        <time>2017-09-19T07:08:56Z</time>
      </trkpt>
      <trkpt lat="48.59172" lon="1.966">
        <ele>115.98</ele>
        <time>2017-09-19T07:09:09Z</time>
      </trkpt>
      <trkpt lat="48.59172" lon="1.966">
        <ele>115.98</ele>
        <time>2017-09-19T07:09:25Z</time>
      </trkpt>
      <trkpt lat="48.59172" lon="1.966">
        <ele>115.98</ele>
        <time>2017-09-19T07:09:49Z</time>
      </trkpt>
      <trkpt lat="48.59172" lon="1.96602">
        <ele>115.98</ele>
        <time>2017-09-19T07:10:04Z</time>
      </trkpt>
      <trkpt lat="48.59172" lon="1.96603">
        <ele>115.98</ele>
        <time>2017-09-19T07:10:22Z</time>
      </trkpt>
      <trkpt lat="48.59172" lon="1.96603">
        <ele>115.98</ele>
        <time>2017-09-19T07:10:36Z</time>
      </trkpt>
      <trkpt lat="48.59173" lon="1.96603">
        <ele>116.46</ele>
        <time>2017-09-19T07:10:53Z</time>
      </trkpt>
      <trkpt lat="48.59174" lon="1.96603">
        <ele>112.13</ele>
        <time>2017-09-19T07:11:00Z</time>
      </trkpt>
      <trkpt lat="48.59174" lon="1.96603">
        <ele>118.38</ele>
        <time>2017-09-19T07:11:01Z</time>
      </trkpt>
      <trkpt lat="48.59175" lon="1.96603">
        <ele>116.46</ele>
        <time>2017-09-19T07:11:04Z</time>
      </trkpt>
      <trkpt lat="48.59176" lon="1.96605">
        <ele>116.46</ele>
        <time>2017-09-19T07:11:21Z</time>
      </trkpt>
      <trkpt lat="48.59177" lon="1.96605">
        <ele>116.46</ele>
        <time>2017-09-19T07:11:29Z</time>
      </trkpt>
      <trkpt lat="48.59179" lon="1.96605">
        <ele>116.46</ele>
        <time>2017-09-19T07:11:42Z</time>
      </trkpt>
      <trkpt lat="48.59178" lon="1.96604">
        <ele>116.46</ele>
        <time>2017-09-19T07:11:59Z</time>
      </trkpt>
      <trkpt lat="48.59178" lon="1.96605">
        <ele>116.46</ele>
        <time>2017-09-19T07:12:14Z</time>
      </trkpt>
      <trkpt lat="48.59178" lon="1.96605">
        <ele>116.46</ele>
        <time>2017-09-19T07:12:27Z</time>
      </trkpt>
      <trkpt lat="48.59185" lon="1.96592">
        <ele>116.46</ele>
        <time>2017-09-19T07:12:40Z</time>
      </trkpt>
      <trkpt lat="48.59196" lon="1.96576">
        <ele>116.46</ele>
        <time>2017-09-19T07:12:53Z</time>
      </trkpt>
      <trkpt lat="48.59211" lon="1.96555">
        <ele>116.94</ele>
        <time>2017-09-19T07:13:07Z</time>
      </trkpt>
      <trkpt lat="48.5922" lon="1.96539">
        <ele>117.9</ele>
        <time>2017-09-19T07:13:25Z</time>
      </trkpt>
      <trkpt lat="48.59222" lon="1.96535">
        <ele>118.38</ele>
        <time>2017-09-19T07:13:28Z</time>
      </trkpt>
      <trkpt lat="48.59234" lon="1.96527">
        <ele>119.34</ele>
        <time>2017-09-19T07:13:43Z</time>
      </trkpt>
      <trkpt lat="48.59246" lon="1.96519">
        <ele>120.3</ele>
        <time>2017-09-19T07:13:57Z</time>
      </trkpt>
      <trkpt lat="48.59256" lon="1.96511">
        <ele>121.26</ele>
        <time>2017-09-19T07:14:08Z</time>
      </trkpt>
      <trkpt lat="48.59264" lon="1.96495">
        <ele>122.71</ele>
        <time>2017-09-19T07:14:22Z</time>
      </trkpt>
      <trkpt lat="48.59274" lon="1.96484">
        <ele>123.67</ele>
        <time>2017-09-19T07:14:34Z</time>
      </trkpt>
      <trkpt lat="48.59277" lon="1.96483">
        <ele>123.67</ele>
        <time>2017-09-19T07:14:37Z</time>
      </trkpt>
      <trkpt lat="48.59294" lon="1.96482">
        <ele>126.55</ele>
        <time>2017-09-19T07:14:52Z</time>
      </trkpt>
      <trkpt lat="48.59304" lon="1.96487">
        <ele>127.99</ele>
        <time>2017-09-19T07:15:01Z</time>
      </trkpt>
      <trkpt lat="48.59316" lon="1.96496">
        <ele>129.43</ele>
        <time>2017-09-19T07:15:16Z</time>
      </trkpt>
      <trkpt lat="48.59326" lon="1.96504">
        <ele>130.4</ele>
        <time>2017-09-19T07:15:25Z</time>
      </trkpt>
      <trkpt lat="48.59341" lon="1.9652">
        <ele>130.88</ele>
        <time>2017-09-19T07:15:40Z</time>
      </trkpt>
      <trkpt lat="48.59344" lon="1.96523">
        <ele>131.36</ele>
        <time>2017-09-19T07:15:43Z</time>
      </trkpt>
      <trkpt lat="48.59348" lon="1.96527">
        <ele>131.36</ele>
        <time>2017-09-19T07:15:47Z</time>
      </trkpt>
      <trkpt lat="48.59361" lon="1.96538">
        <ele>132.32</ele>
        <time>2017-09-19T07:16:00Z</time>
      </trkpt>
      <trkpt lat="48.5937" lon="1.96551">
        <ele>132.8</ele>
        <time>2017-09-19T07:16:13Z</time>
      </trkpt>
      <trkpt lat="48.59372" lon="1.96552">
        <ele>133.76</ele>
        <time>2017-09-19T07:16:15Z</time>
      </trkpt>
      <trkpt lat="48.59377" lon="1.96556">
        <ele>134.72</ele>
        <time>2017-09-19T07:16:22Z</time>
      </trkpt>
      <trkpt lat="48.59393" lon="1.96571">
        <ele>137.13</ele>
        <time>2017-09-19T07:16:37Z</time>
      </trkpt>
      <trkpt lat="48.59395" lon="1.96571">
        <ele>137.13</ele>
        <time>2017-09-19T07:16:45Z</time>
      </trkpt>
      <trkpt lat="48.59411" lon="1.96589">
        <ele>139.53</ele>
        <time>2017-09-19T07:16:59Z</time>
      </trkpt>
      <trkpt lat="48.59424" lon="1.96603">
        <ele>140.97</ele>
        <time>2017-09-19T07:17:12Z</time>
      </trkpt>
      <trkpt lat="48.59433" lon="1.96614">
        <ele>141.93</ele>
        <time>2017-09-19T07:17:24Z</time>
      </trkpt>
      <trkpt lat="48.59434" lon="1.96618">
        <ele>142.41</ele>
        <time>2017-09-19T07:17:27Z</time>
      </trkpt>
      <trkpt lat="48.59433" lon="1.96622">
        <ele>141.93</ele>
        <time>2017-09-19T07:17:29Z</time>
      </trkpt>
      <trkpt lat="48.5943" lon="1.96633">
        <ele>141.93</ele>
        <time>2017-09-19T07:17:34Z</time>
      </trkpt>
      <trkpt lat="48.59424" lon="1.96647">
        <ele>140.97</ele>
        <time>2017-09-19T07:17:47Z</time>
      </trkpt>
      <trkpt lat="48.59423" lon="1.96649">
        <ele>141.45</ele>
        <time>2017-09-19T07:18:08Z</time>
      </trkpt>
      <trkpt lat="48.59423" lon="1.9665">
        <ele>141.45</ele>
        <time>2017-09-19T07:18:29Z</time>
      </trkpt>
      <trkpt lat="48.59422" lon="1.9665">
        <ele>141.45</ele>
        <time>2017-09-19T07:18:49Z</time>
      </trkpt>
      <trkpt lat="48.59421" lon="1.96651">
        <ele>140.97</ele>
        <time>2017-09-19T07:19:03Z</time>
      </trkpt>
      <trkpt lat="48.59415" lon="1.96659">
        <ele>138.09</ele>
        <time>2017-09-19T07:19:11Z</time>
      </trkpt>
      <trkpt lat="48.59412" lon="1.96666">
        <ele>141.45</ele>
        <time>2017-09-19T07:19:17Z</time>
      </trkpt>
      <trkpt lat="48.59409" lon="1.96672">
        <ele>141.45</ele>
        <time>2017-09-19T07:19:20Z</time>
      </trkpt>
      <trkpt lat="48.59399" lon="1.96695">
        <ele>141.45</ele>
        <time>2017-09-19T07:19:33Z</time>
      </trkpt>
      <trkpt lat="48.59389" lon="1.96718">
        <ele>141.93</ele>
        <time>2017-09-19T07:19:45Z</time>
      </trkpt>
      <trkpt lat="48.59379" lon="1.96741">
        <ele>142.41</ele>
        <time>2017-09-19T07:19:58Z</time>
      </trkpt>
      <trkpt lat="48.59371" lon="1.96761">
        <ele>142.89</ele>
        <time>2017-09-19T07:20:10Z</time>
      </trkpt>
      <trkpt lat="48.5936" lon="1.96783">
        <ele>143.37</ele>
        <time>2017-09-19T07:20:22Z</time>
      </trkpt>
      <trkpt lat="48.59355" lon="1.9679">
        <ele>142.41</ele>
        <time>2017-09-19T07:20:29Z</time>
      </trkpt>
      <trkpt lat="48.59354" lon="1.96794">
        <ele>142.41</ele>
        <time>2017-09-19T07:20:31Z</time>
      </trkpt>
      <trkpt lat="48.59341" lon="1.96819">
        <ele>139.53</ele>
        <time>2017-09-19T07:20:48Z</time>
      </trkpt>
      <trkpt lat="48.59334" lon="1.96839">
        <ele>137.61</ele>
        <time>2017-09-19T07:21:03Z</time>
      </trkpt>
      <trkpt lat="48.59321" lon="1.96858">
        <ele>134.24</ele>
        <time>2017-09-19T07:21:21Z</time>
      </trkpt>
      <trkpt lat="48.59313" lon="1.96876">
        <ele>130.88</ele>
        <time>2017-09-19T07:21:34Z</time>
      </trkpt>
      <trkpt lat="48.59301" lon="1.96905">
        <ele>128.47</ele>
        <time>2017-09-19T07:21:48Z</time>
      </trkpt>
      <trkpt lat="48.59295" lon="1.96924">
        <ele>126.07</ele>
        <time>2017-09-19T07:22:03Z</time>
      </trkpt>
      <trkpt lat="48.59288" lon="1.96943">
        <ele>123.19</ele>
        <time>2017-09-19T07:22:16Z</time>
      </trkpt>
      <trkpt lat="48.59282" lon="1.96953">
        <ele>121.26</ele>
        <time>2017-09-19T07:22:27Z</time>
      </trkpt>
      <trkpt lat="48.59264" lon="1.96993">
        <ele>119.82</ele>
        <time>2017-09-19T07:22:45Z</time>
      </trkpt>
      <trkpt lat="48.59249" lon="1.97024">
        <ele>119.34</ele>
        <time>2017-09-19T07:23:01Z</time>
      </trkpt>
      <trkpt lat="48.59242" lon="1.9704">
        <ele>118.86</ele>
        <time>2017-09-19T07:23:14Z</time>
      </trkpt>
      <trkpt lat="48.5924" lon="1.97048">
        <ele>117.9</ele>
        <time>2017-09-19T07:23:27Z</time>
      </trkpt>
      <trkpt lat="48.59238" lon="1.97054">
        <ele>117.9</ele>
        <time>2017-09-19T07:23:29Z</time>
      </trkpt>
      <trkpt lat="48.59225" lon="1.97081">
        <ele>117.42</ele>
        <time>2017-09-19T07:23:43Z</time>
      </trkpt>
      <trkpt lat="48.59214" lon="1.97106">
        <ele>116.94</ele>
        <time>2017-09-19T07:23:54Z</time>
      </trkpt>
      <trkpt lat="48.5921" lon="1.97113">
        <ele>116.94</ele>
        <time>2017-09-19T07:23:55Z</time>
      </trkpt>
      <trkpt lat="48.59191" lon="1.97147">
        <ele>115.01</ele>
        <time>2017-09-19T07:24:11Z</time>
      </trkpt>
      <trkpt lat="48.59172" lon="1.97177">
        <ele>113.57</ele>
        <time>2017-09-19T07:24:24Z</time>
      </trkpt>
      <trkpt lat="48.59166" lon="1.97194">
        <ele>113.09</ele>
        <time>2017-09-19T07:24:36Z</time>
      </trkpt>
      <trkpt lat="48.59162" lon="1.97205">
        <ele>113.09</ele>
        <time>2017-09-19T07:24:41Z</time>
      </trkpt>
      <trkpt lat="48.59157" lon="1.97215">
        <ele>112.61</ele>
        <time>2017-09-19T07:24:45Z</time>
      </trkpt>
      <trkpt lat="48.59149" lon="1.9723">
        <ele>113.09</ele>
        <time>2017-09-19T07:24:58Z</time>
      </trkpt>
      <trkpt lat="48.59136" lon="1.97254">
        <ele>112.61</ele>
        <time>2017-09-19T07:25:14Z</time>
      </trkpt>
      <trkpt lat="48.59121" lon="1.97282">
        <ele>111.65</ele>
        <time>2017-09-19T07:25:30Z</time>
      </trkpt>
      <trkpt lat="48.5911" lon="1.97314">
        <ele>111.65</ele>
        <time>2017-09-19T07:25:48Z</time>
      </trkpt>
      <trkpt lat="48.59114" lon="1.97338">
        <ele>112.13</ele>
        <time>2017-09-19T07:26:06Z</time>
      </trkpt>
      <trkpt lat="48.59117" lon="1.97352">
        <ele>112.61</ele>
        <time>2017-09-19T07:26:13Z</time>
      </trkpt>
      <trkpt lat="48.5912" lon="1.9736">
        <ele>112.13</ele>
        <time>2017-09-19T07:26:19Z</time>
      </trkpt>
      <trkpt lat="48.59124" lon="1.97364">
        <ele>113.09</ele>
        <time>2017-09-19T07:26:23Z</time>
      </trkpt>
      <trkpt lat="48.59137" lon="1.97374">
        <ele>113.57</ele>
        <time>2017-09-19T07:26:34Z</time>
      </trkpt>
      <trkpt lat="48.59148" lon="1.97383">
        <ele>113.57</ele>
        <time>2017-09-19T07:26:44Z</time>
      </trkpt>
      <trkpt lat="48.59173" lon="1.97402">
        <ele>115.01</ele>
        <time>2017-09-19T07:27:03Z</time>
      </trkpt>
      <trkpt lat="48.59193" lon="1.97417">
        <ele>116.46</ele>
        <time>2017-09-19T07:27:20Z</time>
      </trkpt>
      <trkpt lat="48.59208" lon="1.97427">
        <ele>117.42</ele>
        <time>2017-09-19T07:27:32Z</time>
      </trkpt>
      <trkpt lat="48.59231" lon="1.97438">
        <ele>118.86</ele>
        <time>2017-09-19T07:27:49Z</time>
      </trkpt>
      <trkpt lat="48.59242" lon="1.97432">
        <ele>119.34</ele>
        <time>2017-09-19T07:27:56Z</time>
      </trkpt>
      <trkpt lat="48.59264" lon="1.97429">
        <ele>120.78</ele>
        <time>2017-09-19T07:28:10Z</time>
      </trkpt>
      <trkpt lat="48.59282" lon="1.97427">
        <ele>122.22</ele>
        <time>2017-09-19T07:28:24Z</time>
      </trkpt>
      <trkpt lat="48.59301" lon="1.97422">
        <ele>124.15</ele>
        <time>2017-09-19T07:28:41Z</time>
      </trkpt>
      <trkpt lat="48.5932" lon="1.97425">
        <ele>125.59</ele>
        <time>2017-09-19T07:28:57Z</time>
      </trkpt>
      <trkpt lat="48.5934" lon="1.97429">
        <ele>127.03</ele>
        <time>2017-09-19T07:29:14Z</time>
      </trkpt>
      <trkpt lat="48.59359" lon="1.97429">
        <ele>128.95</ele>
        <time>2017-09-19T07:29:25Z</time>
      </trkpt>
      <trkpt lat="48.5937" lon="1.97429">
        <ele>129.43</ele>
        <time>2017-09-19T07:29:33Z</time>
      </trkpt>
      <trkpt lat="48.59381" lon="1.97431">
        <ele>129.43</ele>
        <time>2017-09-19T07:29:39Z</time>
      </trkpt>
      <trkpt lat="48.59392" lon="1.97431">
        <ele>130.4</ele>
        <time>2017-09-19T07:29:54Z</time>
      </trkpt>
      <trkpt lat="48.59398" lon="1.97434">
        <ele>131.36</ele>
        <time>2017-09-19T07:30:12Z</time>
      </trkpt>
      <trkpt lat="48.594" lon="1.97434">
        <ele>131.84</ele>
        <time>2017-09-19T07:30:15Z</time>
      </trkpt>
      <trkpt lat="48.59416" lon="1.97435">
        <ele>132.32</ele>
        <time>2017-09-19T07:30:24Z</time>
      </trkpt>
      <trkpt lat="48.59437" lon="1.97432">
        <ele>133.76</ele>
        <time>2017-09-19T07:30:39Z</time>
      </trkpt>
      <trkpt lat="48.59445" lon="1.97432">
        <ele>134.24</ele>
        <time>2017-09-19T07:30:45Z</time>
      </trkpt>
      <trkpt lat="48.59464" lon="1.97438">
        <ele>136.16</ele>
        <time>2017-09-19T07:31:00Z</time>
      </trkpt>
      <trkpt lat="48.59466" lon="1.97439">
        <ele>136.64</ele>
        <time>2017-09-19T07:31:01Z</time>
      </trkpt>
      <trkpt lat="48.59468" lon="1.97443">
        <ele>135.68</ele>
        <time>2017-09-19T07:31:04Z</time>
      </trkpt>
      <trkpt lat="48.59466" lon="1.97469">
        <ele>137.13</ele>
        <time>2017-09-19T07:31:17Z</time>
      </trkpt>
      <trkpt lat="48.5947" lon="1.97491">
        <ele>138.57</ele>
        <time>2017-09-19T07:31:28Z</time>
      </trkpt>
      <trkpt lat="48.5947" lon="1.97496">
        <ele>139.05</ele>
        <time>2017-09-19T07:31:30Z</time>
      </trkpt>
      <trkpt lat="48.59467" lon="1.97516">
        <ele>140.49</ele>
        <time>2017-09-19T07:31:40Z</time>
      </trkpt>
      <trkpt lat="48.59463" lon="1.97528">
        <ele>140.49</ele>
        <time>2017-09-19T07:31:48Z</time>
      </trkpt>
      <trkpt lat="48.59459" lon="1.97536">
        <ele>140.97</ele>
        <time>2017-09-19T07:31:52Z</time>
      </trkpt>
      <trkpt lat="48.59456" lon="1.97539">
        <ele>140.97</ele>
        <time>2017-09-19T07:31:54Z</time>
      </trkpt>
      <trkpt lat="48.5945" lon="1.97541">
        <ele>141.45</ele>
        <time>2017-09-19T07:31:58Z</time>
      </trkpt>
      <trkpt lat="48.59441" lon="1.97557">
        <ele>142.41</ele>
        <time>2017-09-19T07:32:07Z</time>
      </trkpt>
      <trkpt lat="48.59434" lon="1.97578">
        <ele>144.34</ele>
        <time>2017-09-19T07:32:18Z</time>
      </trkpt>
      <trkpt lat="48.59428" lon="1.97603">
        <ele>145.3</ele>
        <time>2017-09-19T07:32:32Z</time>
      </trkpt>
      <trkpt lat="48.59429" lon="1.97611">
        <ele>144.82</ele>
        <time>2017-09-19T07:32:50Z</time>
      </trkpt>
      <trkpt lat="48.59429" lon="1.97617">
        <ele>144.82</ele>
        <time>2017-09-19T07:32:53Z</time>
      </trkpt>
      <trkpt lat="48.59428" lon="1.97627">
        <ele>147.22</ele>
        <time>2017-09-19T07:32:59Z</time>
      </trkpt>
      <trkpt lat="48.59426" lon="1.97638">
        <ele>147.7</ele>
        <time>2017-09-19T07:33:06Z</time>
      </trkpt>
      <trkpt lat="48.59427" lon="1.97656">
        <ele>148.66</ele>
        <time>2017-09-19T07:33:15Z</time>
      </trkpt>
      <trkpt lat="48.59428" lon="1.97684">
        <ele>150.1</ele>
        <time>2017-09-19T07:33:27Z</time>
      </trkpt>
      <trkpt lat="48.59429" lon="1.97692">
        <ele>152.03</ele>
        <time>2017-09-19T07:33:30Z</time>
      </trkpt>
      <trkpt lat="48.59434" lon="1.97705">
        <ele>153.47</ele>
        <time>2017-09-19T07:33:37Z</time>
      </trkpt>
      <trkpt lat="48.59435" lon="1.97709">
        <ele>153.47</ele>
        <time>2017-09-19T07:33:39Z</time>
      </trkpt>
      <trkpt lat="48.59437" lon="1.97723">
        <ele>153.95</ele>
        <time>2017-09-19T07:33:46Z</time>
      </trkpt>
      <trkpt lat="48.59445" lon="1.97747">
        <ele>156.35</ele>
        <time>2017-09-19T07:34:02Z</time>
      </trkpt>
      <trkpt lat="48.59444" lon="1.9775">
        <ele>156.35</ele>
        <time>2017-09-19T07:34:19Z</time>
      </trkpt>
      <trkpt lat="48.59449" lon="1.97771">
        <ele>157.31</ele>
        <time>2017-09-19T07:34:39Z</time>
      </trkpt>
      <trkpt lat="48.59455" lon="1.97804">
        <ele>157.79</ele>
        <time>2017-09-19T07:34:54Z</time>
      </trkpt>
      <trkpt lat="48.59456" lon="1.97812">
        <ele>157.79</ele>
        <time>2017-09-19T07:34:58Z</time>
      </trkpt>
      <trkpt lat="48.59474" lon="1.9784">
        <ele>157.31</ele>
        <time>2017-09-19T07:35:14Z</time>
      </trkpt>
      <trkpt lat="48.59487" lon="1.97883">
        <ele>157.79</ele>
        <time>2017-09-19T07:35:30Z</time>
      </trkpt>
      <trkpt lat="48.59496" lon="1.97922">
        <ele>157.31</ele>
        <time>2017-09-19T07:35:46Z</time>
      </trkpt>
      <trkpt lat="48.595" lon="1.97934">
        <ele>156.83</ele>
        <time>2017-09-19T07:35:53Z</time>
      </trkpt>
      <trkpt lat="48.59506" lon="1.97967">
        <ele>156.83</ele>
        <time>2017-09-19T07:36:08Z</time>
      </trkpt>
      <trkpt lat="48.59507" lon="1.97986">
        <ele>156.35</ele>
        <time>2017-09-19T07:36:22Z</time>
      </trkpt>
      <trkpt lat="48.5951" lon="1.97992">
        <ele>156.83</ele>
        <time>2017-09-19T07:36:44Z</time>
      </trkpt>
      <trkpt lat="48.59513" lon="1.97993">
        <ele>156.83</ele>
        <time>2017-09-19T07:37:06Z</time>
      </trkpt>
      <trkpt lat="48.59515" lon="1.97993">
        <ele>156.83</ele>
        <time>2017-09-19T07:37:31Z</time>
      </trkpt>
      <trkpt lat="48.59515" lon="1.97994">
        <ele>156.83</ele>
        <time>2017-09-19T07:37:50Z</time>
      </trkpt>
      <trkpt lat="48.59516" lon="1.97997">
        <ele>156.83</ele>
        <time>2017-09-19T07:38:09Z</time>
      </trkpt>
      <trkpt lat="48.59522" lon="1.97999">
        <ele>156.83</ele>
        <time>2017-09-19T07:38:32Z</time>
      </trkpt>
      <trkpt lat="48.59524" lon="1.97999">
        <ele>156.83</ele>
        <time>2017-09-19T07:38:54Z</time>
      </trkpt>
      <trkpt lat="48.59525" lon="1.97999">
        <ele>157.31</ele>
        <time>2017-09-19T07:39:19Z</time>
      </trkpt>
      <trkpt lat="48.59528" lon="1.98005">
        <ele>156.83</ele>
        <time>2017-09-19T07:39:37Z</time>
      </trkpt>
      <trkpt lat="48.59531" lon="1.98006">
        <ele>156.83</ele>
        <time>2017-09-19T07:39:42Z</time>
      </trkpt>
      <trkpt lat="48.59537" lon="1.98011">
        <ele>156.83</ele>
        <time>2017-09-19T07:39:49Z</time>
      </trkpt>
      <trkpt lat="48.59554" lon="1.98034">
        <ele>155.39</ele>
        <time>2017-09-19T07:40:06Z</time>
      </trkpt>
      <trkpt lat="48.59578" lon="1.98038">
        <ele>153.95</ele>
        <time>2017-09-19T07:40:23Z</time>
      </trkpt>
      <trkpt lat="48.59592" lon="1.98048">
        <ele>152.99</ele>
        <time>2017-09-19T07:40:37Z</time>
      </trkpt>
      <trkpt lat="48.59603" lon="1.98073">
        <ele>151.06</ele>
        <time>2017-09-19T07:40:56Z</time>
      </trkpt>
      <trkpt lat="48.59614" lon="1.98086">
        <ele>151.06</ele>
        <time>2017-09-19T07:41:08Z</time>
      </trkpt>
      <trkpt lat="48.59643" lon="1.98119">
        <ele>150.58</ele>
        <time>2017-09-19T07:41:22Z</time>
      </trkpt>
      <trkpt lat="48.59662" lon="1.98138">
        <ele>150.1</ele>
        <time>2017-09-19T07:41:41Z</time>
      </trkpt>
      <trkpt lat="48.59676" lon="1.98161">
        <ele>148.18</ele>
        <time>2017-09-19T07:41:55Z</time>
      </trkpt>
      <trkpt lat="48.5969" lon="1.98176">
        <ele>147.7</ele>
        <time>2017-09-19T07:42:05Z</time>
      </trkpt>
      <trkpt lat="48.5971" lon="1.98195">
        <ele>145.3</ele>
        <time>2017-09-19T07:42:21Z</time>
      </trkpt>
      <trkpt lat="48.59732" lon="1.98208">
        <ele>141.93</ele>
        <time>2017-09-19T07:42:39Z</time>
      </trkpt>
      <trkpt lat="48.59749" lon="1.98217">
        <ele>140.49</ele>
        <time>2017-09-19T07:42:53Z</time>
      </trkpt>
      <trkpt lat="48.59754" lon="1.98219">
        <ele>140.01</ele>
        <time>2017-09-19T07:42:57Z</time>
      </trkpt>
      <trkpt lat="48.59758" lon="1.9822">
        <ele>139.53</ele>
        <time>2017-09-19T07:42:59Z</time>
      </trkpt>
      <trkpt lat="48.59778" lon="1.98236">
        <ele>137.61</ele>
        <time>2017-09-19T07:43:16Z</time>
      </trkpt>
      <trkpt lat="48.5978" lon="1.98241">
        <ele>137.13</ele>
        <time>2017-09-19T07:43:20Z</time>
      </trkpt>
      <trkpt lat="48.59788" lon="1.98251">
        <ele>134.72</ele>
        <time>2017-09-19T07:43:29Z</time>
      </trkpt>
      <trkpt lat="48.59793" lon="1.98255">
        <ele>134.24</ele>
        <time>2017-09-19T07:43:33Z</time>
      </trkpt>
      <trkpt lat="48.59809" lon="1.98253">
        <ele>131.84</ele>
        <time>2017-09-19T07:43:46Z</time>
      </trkpt>
      <trkpt lat="48.59817" lon="1.98255">
        <ele>130.4</ele>
        <time>2017-09-19T07:43:52Z</time>
      </trkpt>
      <trkpt lat="48.59832" lon="1.98269">
        <ele>127.99</ele>
        <time>2017-09-19T07:44:04Z</time>
      </trkpt>
      <trkpt lat="48.59851" lon="1.98273">
        <ele>125.59</ele>
        <time>2017-09-19T07:44:18Z</time>
      </trkpt>
      <trkpt lat="48.59861" lon="1.98278">
        <ele>125.11</ele>
        <time>2017-09-19T07:44:23Z</time>
      </trkpt>
      <trkpt lat="48.59884" lon="1.98294">
        <ele>123.19</ele>
        <time>2017-09-19T07:44:40Z</time>
      </trkpt>
      <trkpt lat="48.59887" lon="1.98315">
        <ele>122.71</ele>
        <time>2017-09-19T07:44:55Z</time>
      </trkpt>
      <trkpt lat="48.59886" lon="1.98315">
        <ele>123.67</ele>
        <time>2017-09-19T07:45:24Z</time>
      </trkpt>
      <trkpt lat="48.59878" lon="1.98327">
        <ele>123.67</ele>
        <time>2017-09-19T07:45:35Z</time>
      </trkpt>
      <trkpt lat="48.59863" lon="1.98356">
        <ele>123.19</ele>
        <time>2017-09-19T07:45:51Z</time>
      </trkpt>
      <trkpt lat="48.59844" lon="1.98396">
        <ele>122.22</ele>
        <time>2017-09-19T07:46:11Z</time>
      </trkpt>
      <trkpt lat="48.5984" lon="1.98423">
        <ele>124.15</ele>
        <time>2017-09-19T07:46:24Z</time>
      </trkpt>
      <trkpt lat="48.59847" lon="1.98456">
        <ele>124.63</ele>
        <time>2017-09-19T07:46:40Z</time>
      </trkpt>
      <trkpt lat="48.59852" lon="1.9847">
        <ele>125.11</ele>
        <time>2017-09-19T07:46:47Z</time>
      </trkpt>
      <trkpt lat="48.59851" lon="1.98475">
        <ele>125.59</ele>
        <time>2017-09-19T07:46:50Z</time>
      </trkpt>
      <trkpt lat="48.59845" lon="1.98489">
        <ele>127.51</ele>
        <time>2017-09-19T07:47:00Z</time>
      </trkpt>
      <trkpt lat="48.59836" lon="1.98505">
        <ele>130.88</ele>
        <time>2017-09-19T07:47:16Z</time>
      </trkpt>
      <trkpt lat="48.59835" lon="1.98507">
        <ele>130.4</ele>
        <time>2017-09-19T07:47:18Z</time>
      </trkpt>
      <trkpt lat="48.59834" lon="1.98507">
        <ele>130.88</ele>
        <time>2017-09-19T07:47:20Z</time>
      </trkpt>
      <trkpt lat="48.59825" lon="1.98507">
        <ele>134.72</ele>
        <time>2017-09-19T07:47:31Z</time>
      </trkpt>
      <trkpt lat="48.59821" lon="1.98506">
        <ele>132.8</ele>
        <time>2017-09-19T07:47:34Z</time>
      </trkpt>
      <trkpt lat="48.59814" lon="1.98508">
        <ele>136.64</ele>
        <time>2017-09-19T07:47:40Z</time>
      </trkpt>
      <trkpt lat="48.59808" lon="1.9851">
        <ele>138.09</ele>
        <time>2017-09-19T07:47:45Z</time>
      </trkpt>
      <trkpt lat="48.59799" lon="1.98514">
        <ele>140.01</ele>
        <time>2017-09-19T07:48:01Z</time>
      </trkpt>
      <trkpt lat="48.59784" lon="1.98514">
        <ele>132.32</ele>
        <time>2017-09-19T07:48:19Z</time>
      </trkpt>
      <trkpt lat="48.59785" lon="1.98514">
        <ele>137.61</ele>
        <time>2017-09-19T07:48:20Z</time>
      </trkpt>
      <trkpt lat="48.59785" lon="1.98514">
        <ele>149.62</ele>
        <time>2017-09-19T07:48:21Z</time>
      </trkpt>
      <trkpt lat="48.59785" lon="1.98514">
        <ele>139.05</ele>
        <time>2017-09-19T07:48:22Z</time>
      </trkpt>
      <trkpt lat="48.59785" lon="1.98514">
        <ele>146.74</ele>
        <time>2017-09-19T07:48:23Z</time>
      </trkpt>
      <trkpt lat="48.59785" lon="1.98514">
        <ele>142.89</ele>
        <time>2017-09-19T07:48:24Z</time>
      </trkpt>
      <trkpt lat="48.59785" lon="1.98514">
        <ele>138.57</ele>
        <time>2017-09-19T07:48:26Z</time>
      </trkpt>
      <trkpt lat="48.59785" lon="1.98515">
        <ele>134.72</ele>
        <time>2017-09-19T07:48:27Z</time>
      </trkpt>
      <trkpt lat="48.59785" lon="1.98514">
        <ele>146.74</ele>
        <time>2017-09-19T07:48:28Z</time>
      </trkpt>
      <trkpt lat="48.59785" lon="1.98514">
        <ele>143.85</ele>
        <time>2017-09-19T07:48:29Z</time>
      </trkpt>
      <trkpt lat="48.59785" lon="1.98515">
        <ele>140.49</ele>
        <time>2017-09-19T07:48:32Z</time>
      </trkpt>
      <trkpt lat="48.59785" lon="1.98515">
        <ele>136.64</ele>
        <time>2017-09-19T07:48:33Z</time>
      </trkpt>
      <trkpt lat="48.59785" lon="1.98515">
        <ele>142.41</ele>
        <time>2017-09-19T07:48:34Z</time>
      </trkpt>
      <trkpt lat="48.59785" lon="1.98515">
        <ele>137.61</ele>
        <time>2017-09-19T07:48:39Z</time>
      </trkpt>
      <trkpt lat="48.59785" lon="1.98515">
        <ele>142.41</ele>
        <time>2017-09-19T07:48:40Z</time>
      </trkpt>
      <trkpt lat="48.5978" lon="1.98518">
        <ele>141.45</ele>
        <time>2017-09-19T07:48:55Z</time>
      </trkpt>
      <trkpt lat="48.59778" lon="1.9852">
        <ele>141.93</ele>
        <time>2017-09-19T07:48:57Z</time>
      </trkpt>
      <trkpt lat="48.59755" lon="1.98536">
        <ele>143.37</ele>
        <time>2017-09-19T07:49:15Z</time>
      </trkpt>
      <trkpt lat="48.5975" lon="1.98538">
        <ele>142.89</ele>
        <time>2017-09-19T07:49:19Z</time>
      </trkpt>
      <trkpt lat="48.59729" lon="1.98551">
        <ele>143.37</ele>
        <time>2017-09-19T07:49:36Z</time>
      </trkpt>
      <trkpt lat="48.59712" lon="1.98557">
        <ele>139.05</ele>
        <time>2017-09-19T07:49:49Z</time>
      </trkpt>
      <trkpt lat="48.59711" lon="1.98556">
        <ele>135.68</ele>
        <time>2017-09-19T07:49:50Z</time>
      </trkpt>
      <trkpt lat="48.59711" lon="1.98555">
        <ele>142.89</ele>
        <time>2017-09-19T07:49:51Z</time>
      </trkpt>
      <trkpt lat="48.5971" lon="1.98555">
        <ele>141.93</ele>
        <time>2017-09-19T07:49:52Z</time>
      </trkpt>
      <trkpt lat="48.5971" lon="1.98554">
        <ele>145.78</ele>
        <time>2017-09-19T07:49:53Z</time>
      </trkpt>
      <trkpt lat="48.59709" lon="1.98554">
        <ele>142.89</ele>
        <time>2017-09-19T07:49:54Z</time>
      </trkpt>
      <trkpt lat="48.59709" lon="1.98553">
        <ele>152.51</ele>
        <time>2017-09-19T07:49:55Z</time>
      </trkpt>
      <trkpt lat="48.59708" lon="1.98552">
        <ele>143.37</ele>
        <time>2017-09-19T07:49:56Z</time>
      </trkpt>
      <trkpt lat="48.59709" lon="1.98548">
        <ele>144.34</ele>
        <time>2017-09-19T07:50:09Z</time>
      </trkpt>
      <trkpt lat="48.59707" lon="1.98546">
        <ele>135.68</ele>
        <time>2017-09-19T07:50:13Z</time>
      </trkpt>
      <trkpt lat="48.59707" lon="1.98545">
        <ele>149.62</ele>
        <time>2017-09-19T07:50:14Z</time>
      </trkpt>
      <trkpt lat="48.59707" lon="1.98544">
        <ele>142.89</ele>
        <time>2017-09-19T07:50:15Z</time>
      </trkpt>
      <trkpt lat="48.59706" lon="1.98543">
        <ele>139.05</ele>
        <time>2017-09-19T07:50:16Z</time>
      </trkpt>
      <trkpt lat="48.59706" lon="1.98542">
        <ele>148.18</ele>
        <time>2017-09-19T07:50:17Z</time>
      </trkpt>
      <trkpt lat="48.59706" lon="1.98542">
        <ele>135.68</ele>
        <time>2017-09-19T07:50:18Z</time>
      </trkpt>
      <trkpt lat="48.59706" lon="1.98542">
        <ele>145.3</ele>
        <time>2017-09-19T07:50:19Z</time>
      </trkpt>
      <trkpt lat="48.59706" lon="1.98542">
        <ele>148.66</ele>
        <time>2017-09-19T07:50:21Z</time>
      </trkpt>
      <trkpt lat="48.59706" lon="1.98542">
        <ele>143.85</ele>
        <time>2017-09-19T07:50:22Z</time>
      </trkpt>
      <trkpt lat="48.59706" lon="1.98542">
        <ele>139.53</ele>
        <time>2017-09-19T07:50:26Z</time>
      </trkpt>
      <trkpt lat="48.59706" lon="1.98542">
        <ele>146.26</ele>
        <time>2017-09-19T07:50:27Z</time>
      </trkpt>
      <trkpt lat="48.59707" lon="1.98542">
        <ele>142.89</ele>
        <time>2017-09-19T07:50:29Z</time>
      </trkpt>
      <trkpt lat="48.59703" lon="1.98537">
        <ele>137.13</ele>
        <time>2017-09-19T07:50:41Z</time>
      </trkpt>
      <trkpt lat="48.59703" lon="1.98538">
        <ele>150.58</ele>
        <time>2017-09-19T07:50:42Z</time>
      </trkpt>
      <trkpt lat="48.59702" lon="1.98537">
        <ele>144.34</ele>
        <time>2017-09-19T07:50:43Z</time>
      </trkpt>
      <trkpt lat="48.59697" lon="1.98556">
        <ele>141.93</ele>
        <time>2017-09-19T07:50:55Z</time>
      </trkpt>
      <trkpt lat="48.597" lon="1.98588">
        <ele>140.01</ele>
        <time>2017-09-19T07:51:08Z</time>
      </trkpt>
      <trkpt lat="48.59695" lon="1.98605">
        <ele>136.16</ele>
        <time>2017-09-19T07:51:19Z</time>
      </trkpt>
      <trkpt lat="48.59694" lon="1.98618">
        <ele>133.28</ele>
        <time>2017-09-19T07:51:25Z</time>
      </trkpt>
      <trkpt lat="48.59694" lon="1.98622">
        <ele>132.32</ele>
        <time>2017-09-19T07:51:27Z</time>
      </trkpt>
      <trkpt lat="48.5969" lon="1.98637">
        <ele>129.92</ele>
        <time>2017-09-19T07:51:34Z</time>
      </trkpt>
      <trkpt lat="48.59684" lon="1.98658">
        <ele>126.55</ele>
        <time>2017-09-19T07:51:44Z</time>
      </trkpt>
      <trkpt lat="48.59679" lon="1.98683">
        <ele>123.67</ele>
        <time>2017-09-19T07:51:59Z</time>
      </trkpt>
      <trkpt lat="48.59671" lon="1.98689">
        <ele>123.19</ele>
        <time>2017-09-19T07:52:07Z</time>
      </trkpt>
      <trkpt lat="48.59646" lon="1.98689">
        <ele>123.67</ele>
        <time>2017-09-19T07:52:25Z</time>
      </trkpt>
      <trkpt lat="48.59629" lon="1.98693">
        <ele>122.22</ele>
        <time>2017-09-19T07:52:43Z</time>
      </trkpt>
      <trkpt lat="48.59614" lon="1.98715">
        <ele>121.74</ele>
        <time>2017-09-19T07:53:00Z</time>
      </trkpt>
      <trkpt lat="48.59612" lon="1.98719">
        <ele>121.26</ele>
        <time>2017-09-19T07:53:03Z</time>
      </trkpt>
      <trkpt lat="48.596" lon="1.98739">
        <ele>120.78</ele>
        <time>2017-09-19T07:53:21Z</time>
      </trkpt>
      <trkpt lat="48.59596" lon="1.98741">
        <ele>121.74</ele>
        <time>2017-09-19T07:53:25Z</time>
      </trkpt>
      <trkpt lat="48.59576" lon="1.98759">
        <ele>123.19</ele>
        <time>2017-09-19T07:53:40Z</time>
      </trkpt>
      <trkpt lat="48.59573" lon="1.9876">
        <ele>123.19</ele>
        <time>2017-09-19T07:53:42Z</time>
      </trkpt>
      <trkpt lat="48.59566" lon="1.98765">
        <ele>122.71</ele>
        <time>2017-09-19T07:53:47Z</time>
      </trkpt>
      <trkpt lat="48.59556" lon="1.98785">
        <ele>122.71</ele>
        <time>2017-09-19T07:54:06Z</time>
      </trkpt>
      <trkpt lat="48.59553" lon="1.98791">
        <ele>122.22</ele>
        <time>2017-09-19T07:54:28Z</time>
      </trkpt>
      <trkpt lat="48.59555" lon="1.98795">
        <ele>122.71</ele>
        <time>2017-09-19T07:54:47Z</time>
      </trkpt>
      <trkpt lat="48.59567" lon="1.98797">
        <ele>122.22</ele>
        <time>2017-09-19T07:55:02Z</time>
      </trkpt>
      <trkpt lat="48.59576" lon="1.98799">
        <ele>122.22</ele>
        <time>2017-09-19T07:55:10Z</time>
      </trkpt>
      <trkpt lat="48.596" lon="1.98796">
        <ele>120.78</ele>
        <time>2017-09-19T07:55:27Z</time>
      </trkpt>
      <trkpt lat="48.59609" lon="1.98797">
        <ele>114.05</ele>
        <time>2017-09-19T07:55:43Z</time>
      </trkpt>
      <trkpt lat="48.59609" lon="1.98797">
        <ele>121.26</ele>
        <time>2017-09-19T07:55:44Z</time>
      </trkpt>
      <trkpt lat="48.59609" lon="1.98797">
        <ele>116.46</ele>
        <time>2017-09-19T07:55:51Z</time>
      </trkpt>
      <trkpt lat="48.59609" lon="1.98797">
        <ele>124.63</ele>
        <time>2017-09-19T07:55:52Z</time>
      </trkpt>
      <trkpt lat="48.59609" lon="1.98797">
        <ele>120.78</ele>
        <time>2017-09-19T07:55:53Z</time>
      </trkpt>
      <trkpt lat="48.59612" lon="1.98797">
        <ele>119.34</ele>
        <time>2017-09-19T07:56:10Z</time>
      </trkpt>
      <trkpt lat="48.59614" lon="1.98796">
        <ele>118.38</ele>
        <time>2017-09-19T07:56:16Z</time>
      </trkpt>
      <trkpt lat="48.59621" lon="1.98793">
        <ele>117.42</ele>
        <time>2017-09-19T07:56:22Z</time>
      </trkpt>
      <trkpt lat="48.59658" lon="1.98797">
        <ele>115.98</ele>
        <time>2017-09-19T07:56:41Z</time>
      </trkpt>
      <trkpt lat="48.59675" lon="1.98794">
        <ele>114.53</ele>
        <time>2017-09-19T07:57:01Z</time>
      </trkpt>
      <trkpt lat="48.59684" lon="1.98794">
        <ele>113.09</ele>
        <time>2017-09-19T07:57:17Z</time>
      </trkpt>
      <trkpt lat="48.59707" lon="1.98797">
        <ele>112.61</ele>
        <time>2017-09-19T07:57:36Z</time>
      </trkpt>
      <trkpt lat="48.59751" lon="1.98803">
        <ele>112.13</ele>
        <time>2017-09-19T07:57:55Z</time>
      </trkpt>
      <trkpt lat="48.5977" lon="1.98803">
        <ele>111.17</ele>
        <time>2017-09-19T07:58:13Z</time>
      </trkpt>
      <trkpt lat="48.59802" lon="1.98798">
        <ele>109.73</ele>
        <time>2017-09-19T07:58:29Z</time>
      </trkpt>
      <trkpt lat="48.59827" lon="1.98792">
        <ele>108.29</ele>
        <time>2017-09-19T07:58:44Z</time>
      </trkpt>
      <trkpt lat="48.59858" lon="1.98785">
        <ele>106.84</ele>
        <time>2017-09-19T07:59:02Z</time>
      </trkpt>
      <trkpt lat="48.59864" lon="1.98785">
        <ele>106.84</ele>
        <time>2017-09-19T07:59:14Z</time>
      </trkpt>
      <trkpt lat="48.59893" lon="1.98779">
        <ele>107.32</ele>
        <time>2017-09-19T07:59:32Z</time>
      </trkpt>
      <trkpt lat="48.59914" lon="1.98773">
        <ele>105.4</ele>
        <time>2017-09-19T07:59:46Z</time>
      </trkpt>
      <trkpt lat="48.59934" lon="1.98766">
        <ele>104.92</ele>
        <time>2017-09-19T08:00:06Z</time>
      </trkpt>
      <trkpt lat="48.59962" lon="1.98759">
        <ele>104.44</ele>
        <time>2017-09-19T08:00:23Z</time>
      </trkpt>
      <trkpt lat="48.59985" lon="1.98753">
        <ele>103.96</ele>
        <time>2017-09-19T08:00:42Z</time>
      </trkpt>
      <trkpt lat="48.59987" lon="1.98752">
        <ele>103.96</ele>
        <time>2017-09-19T08:00:44Z</time>
      </trkpt>
      <trkpt lat="48.60021" lon="1.98745">
        <ele>103</ele>
        <time>2017-09-19T08:01:03Z</time>
      </trkpt>
      <trkpt lat="48.60039" lon="1.98739">
        <ele>103</ele>
        <time>2017-09-19T08:01:18Z</time>
      </trkpt>
      <trkpt lat="48.60061" lon="1.98725">
        <ele>104.92</ele>
        <time>2017-09-19T08:01:36Z</time>
      </trkpt>
      <trkpt lat="48.60088" lon="1.98705">
        <ele>105.4</ele>
        <time>2017-09-19T08:01:57Z</time>
      </trkpt>
      <trkpt lat="48.60101" lon="1.98694">
        <ele>105.4</ele>
        <time>2017-09-19T08:02:18Z</time>
      </trkpt>
      <trkpt lat="48.60106" lon="1.98693">
        <ele>105.88</ele>
        <time>2017-09-19T08:02:33Z</time>
      </trkpt>
      <trkpt lat="48.60112" lon="1.98687">
        <ele>105.88</ele>
        <time>2017-09-19T08:02:41Z</time>
      </trkpt>
      <trkpt lat="48.60134" lon="1.98678">
        <ele>105.88</ele>
        <time>2017-09-19T08:02:54Z</time>
      </trkpt>
      <trkpt lat="48.6015" lon="1.98663">
        <ele>105.88</ele>
        <time>2017-09-19T08:03:10Z</time>
      </trkpt>
      <trkpt lat="48.6016" lon="1.98651">
        <ele>104.44</ele>
        <time>2017-09-19T08:03:21Z</time>
      </trkpt>
      <trkpt lat="48.60169" lon="1.98633">
        <ele>103.48</ele>
        <time>2017-09-19T08:03:40Z</time>
      </trkpt>
      <trkpt lat="48.6019" lon="1.98605">
        <ele>102.04</ele>
        <time>2017-09-19T08:04:03Z</time>
      </trkpt>
      <trkpt lat="48.60218" lon="1.98583">
        <ele>101.56</ele>
        <time>2017-09-19T08:04:19Z</time>
      </trkpt>
      <trkpt lat="48.60236" lon="1.98562">
        <ele>101.08</ele>
        <time>2017-09-19T08:04:32Z</time>
      </trkpt>
      <trkpt lat="48.60253" lon="1.98536">
        <ele>100.6</ele>
        <time>2017-09-19T08:04:52Z</time>
      </trkpt>
      <trkpt lat="48.60275" lon="1.98496">
        <ele>101.08</ele>
        <time>2017-09-19T08:05:12Z</time>
      </trkpt>
      <trkpt lat="48.60291" lon="1.98467">
        <ele>102.52</ele>
        <time>2017-09-19T08:05:28Z</time>
      </trkpt>
      <trkpt lat="48.603" lon="1.98461">
        <ele>101.56</ele>
        <time>2017-09-19T08:05:34Z</time>
      </trkpt>
      <trkpt lat="48.60305" lon="1.9846">
        <ele>101.56</ele>
        <time>2017-09-19T08:05:36Z</time>
      </trkpt>
      <trkpt lat="48.60312" lon="1.98453">
        <ele>102.04</ele>
        <time>2017-09-19T08:05:40Z</time>
      </trkpt>
      <trkpt lat="48.60328" lon="1.98434">
        <ele>100.6</ele>
        <time>2017-09-19T08:05:54Z</time>
      </trkpt>
      <trkpt lat="48.60346" lon="1.98417">
        <ele>99.15</ele>
        <time>2017-09-19T08:06:11Z</time>
      </trkpt>
      <trkpt lat="48.6037" lon="1.98405">
        <ele>97.71</ele>
        <time>2017-09-19T08:06:31Z</time>
      </trkpt>
      <trkpt lat="48.60394" lon="1.98393">
        <ele>96.27</ele>
        <time>2017-09-19T08:06:53Z</time>
      </trkpt>
      <trkpt lat="48.60423" lon="1.9838">
        <ele>96.27</ele>
        <time>2017-09-19T08:07:13Z</time>
      </trkpt>
      <trkpt lat="48.60459" lon="1.98374">
        <ele>96.27</ele>
        <time>2017-09-19T08:07:35Z</time>
      </trkpt>
      <trkpt lat="48.6049" lon="1.98369">
        <ele>96.75</ele>
        <time>2017-09-19T08:07:56Z</time>
      </trkpt>
      <trkpt lat="48.60514" lon="1.98363">
        <ele>97.71</ele>
        <time>2017-09-19T08:08:15Z</time>
      </trkpt>
      <trkpt lat="48.60527" lon="1.98354">
        <ele>97.71</ele>
        <time>2017-09-19T08:08:30Z</time>
      </trkpt>
      <trkpt lat="48.60532" lon="1.98351">
        <ele>99.63</ele>
        <time>2017-09-19T08:08:45Z</time>
      </trkpt>
      <trkpt lat="48.60531" lon="1.9835">
        <ele>98.19</ele>
        <time>2017-09-19T08:08:55Z</time>
      </trkpt>
      <trkpt lat="48.60528" lon="1.9835">
        <ele>97.71</ele>
        <time>2017-09-19T08:08:59Z</time>
      </trkpt>
      <trkpt lat="48.60526" lon="1.98346">
        <ele>97.71</ele>
        <time>2017-09-19T08:09:17Z</time>
      </trkpt>
      <trkpt lat="48.60521" lon="1.98339">
        <ele>97.71</ele>
        <time>2017-09-19T08:09:28Z</time>
      </trkpt>
      <trkpt lat="48.6051" lon="1.9832">
        <ele>97.23</ele>
        <time>2017-09-19T08:09:44Z</time>
      </trkpt>
      <trkpt lat="48.60507" lon="1.98315">
        <ele>97.71</ele>
        <time>2017-09-19T08:09:47Z</time>
      </trkpt>
      <trkpt lat="48.60489" lon="1.983">
        <ele>98.19</ele>
        <time>2017-09-19T08:10:03Z</time>
      </trkpt>
      <trkpt lat="48.60478" lon="1.98281">
        <ele>97.71</ele>
        <time>2017-09-19T08:10:19Z</time>
      </trkpt>
      <trkpt lat="48.60464" lon="1.98269">
        <ele>98.19</ele>
        <time>2017-09-19T08:10:28Z</time>
      </trkpt>
      <trkpt lat="48.60444" lon="1.98256">
        <ele>97.71</ele>
        <time>2017-09-19T08:10:43Z</time>
      </trkpt>
      <trkpt lat="48.60433" lon="1.98249">
        <ele>97.71</ele>
        <time>2017-09-19T08:10:57Z</time>
      </trkpt>
      <trkpt lat="48.60424" lon="1.98239">
        <ele>98.19</ele>
        <time>2017-09-19T08:11:02Z</time>
      </trkpt>
      <trkpt lat="48.60407" lon="1.98217">
        <ele>98.19</ele>
        <time>2017-09-19T08:11:17Z</time>
      </trkpt>
      <trkpt lat="48.60403" lon="1.9821">
        <ele>98.67</ele>
        <time>2017-09-19T08:11:22Z</time>
      </trkpt>
      <trkpt lat="48.60387" lon="1.98192">
        <ele>98.67</ele>
        <time>2017-09-19T08:11:36Z</time>
      </trkpt>
      <trkpt lat="48.60376" lon="1.98183">
        <ele>99.15</ele>
        <time>2017-09-19T08:11:47Z</time>
      </trkpt>
      <trkpt lat="48.60354" lon="1.9817">
        <ele>100.11</ele>
        <time>2017-09-19T08:12:03Z</time>
      </trkpt>
      <trkpt lat="48.60349" lon="1.98162">
        <ele>100.11</ele>
        <time>2017-09-19T08:12:09Z</time>
      </trkpt>
      <trkpt lat="48.60343" lon="1.98155">
        <ele>100.6</ele>
        <time>2017-09-19T08:12:16Z</time>
      </trkpt>
      <trkpt lat="48.60341" lon="1.98149">
        <ele>100.6</ele>
        <time>2017-09-19T08:12:19Z</time>
      </trkpt>
      <trkpt lat="48.60336" lon="1.98143">
        <ele>101.08</ele>
        <time>2017-09-19T08:12:24Z</time>
      </trkpt>
      <trkpt lat="48.60334" lon="1.98142">
        <ele>101.08</ele>
        <time>2017-09-19T08:12:26Z</time>
      </trkpt>
      <trkpt lat="48.60318" lon="1.98126">
        <ele>101.56</ele>
        <time>2017-09-19T08:12:40Z</time>
      </trkpt>
      <trkpt lat="48.60313" lon="1.98121">
        <ele>101.56</ele>
        <time>2017-09-19T08:12:45Z</time>
      </trkpt>
      <trkpt lat="48.60311" lon="1.98119">
        <ele>101.56</ele>
        <time>2017-09-19T08:12:47Z</time>
      </trkpt>
      <trkpt lat="48.60304" lon="1.98108">
        <ele>101.56</ele>
        <time>2017-09-19T08:12:53Z</time>
      </trkpt>
      <trkpt lat="48.60298" lon="1.98097">
        <ele>98.19</ele>
        <time>2017-09-19T08:13:00Z</time>
      </trkpt>
      <trkpt lat="48.60298" lon="1.98097">
        <ele>100.11</ele>
        <time>2017-09-19T08:13:01Z</time>
      </trkpt>
      <trkpt lat="48.60298" lon="1.98097">
        <ele>101.56</ele>
        <time>2017-09-19T08:13:03Z</time>
      </trkpt>
      <trkpt lat="48.60298" lon="1.98097">
        <ele>105.88</ele>
        <time>2017-09-19T08:13:06Z</time>
      </trkpt>
      <trkpt lat="48.60296" lon="1.98097">
        <ele>102.04</ele>
        <time>2017-09-19T08:13:07Z</time>
      </trkpt>
      <trkpt lat="48.60294" lon="1.98095">
        <ele>101.56</ele>
        <time>2017-09-19T08:13:08Z</time>
      </trkpt>
      <trkpt lat="48.60286" lon="1.98089">
        <ele>102.04</ele>
        <time>2017-09-19T08:13:13Z</time>
      </trkpt>
      <trkpt lat="48.60274" lon="1.98083">
        <ele>102.52</ele>
        <time>2017-09-19T08:13:26Z</time>
      </trkpt>
      <trkpt lat="48.60271" lon="1.98081">
        <ele>102.52</ele>
        <time>2017-09-19T08:13:29Z</time>
      </trkpt>
      <trkpt lat="48.60252" lon="1.98057">
        <ele>103.48</ele>
        <time>2017-09-19T08:13:44Z</time>
      </trkpt>
      <trkpt lat="48.6024" lon="1.98034">
        <ele>103.96</ele>
        <time>2017-09-19T08:13:56Z</time>
      </trkpt>
      <trkpt lat="48.60219" lon="1.98017">
        <ele>104.44</ele>
        <time>2017-09-19T08:14:10Z</time>
      </trkpt>
      <trkpt lat="48.60201" lon="1.97999">
        <ele>104.92</ele>
        <time>2017-09-19T08:14:24Z</time>
      </trkpt>
      <trkpt lat="48.60186" lon="1.97983">
        <ele>105.88</ele>
        <time>2017-09-19T08:14:38Z</time>
      </trkpt>
      <trkpt lat="48.60173" lon="1.9797">
        <ele>105.88</ele>
        <time>2017-09-19T08:14:52Z</time>
      </trkpt>
      <trkpt lat="48.60162" lon="1.97957">
        <ele>105.88</ele>
        <time>2017-09-19T08:15:01Z</time>
      </trkpt>
      <trkpt lat="48.60158" lon="1.97951">
        <ele>105.88</ele>
        <time>2017-09-19T08:15:05Z</time>
      </trkpt>
      <trkpt lat="48.60147" lon="1.97932">
        <ele>106.36</ele>
        <time>2017-09-19T08:15:18Z</time>
      </trkpt>
      <trkpt lat="48.60141" lon="1.97927">
        <ele>106.36</ele>
        <time>2017-09-19T08:15:23Z</time>
      </trkpt>
      <trkpt lat="48.60129" lon="1.97917">
        <ele>106.84</ele>
        <time>2017-09-19T08:15:32Z</time>
      </trkpt>
      <trkpt lat="48.6012" lon="1.97909">
        <ele>107.32</ele>
        <time>2017-09-19T08:15:42Z</time>
      </trkpt>
      <trkpt lat="48.60114" lon="1.97903">
        <ele>107.32</ele>
        <time>2017-09-19T08:15:49Z</time>
      </trkpt>
      <trkpt lat="48.601" lon="1.97892">
        <ele>107.32</ele>
        <time>2017-09-19T08:15:58Z</time>
      </trkpt>
      <trkpt lat="48.60076" lon="1.97868">
        <ele>107.81</ele>
        <time>2017-09-19T08:16:13Z</time>
      </trkpt>
      <trkpt lat="48.60063" lon="1.9786">
        <ele>108.29</ele>
        <time>2017-09-19T08:16:28Z</time>
      </trkpt>
      <trkpt lat="48.60045" lon="1.97836">
        <ele>104.44</ele>
        <time>2017-09-19T08:16:40Z</time>
      </trkpt>
      <trkpt lat="48.60045" lon="1.97834">
        <ele>107.81</ele>
        <time>2017-09-19T08:16:41Z</time>
      </trkpt>
      <trkpt lat="48.60044" lon="1.97832">
        <ele>111.65</ele>
        <time>2017-09-19T08:16:42Z</time>
      </trkpt>
      <trkpt lat="48.60044" lon="1.97831">
        <ele>109.73</ele>
        <time>2017-09-19T08:16:43Z</time>
      </trkpt>
      <trkpt lat="48.60042" lon="1.97828">
        <ele>108.77</ele>
        <time>2017-09-19T08:16:45Z</time>
      </trkpt>
      <trkpt lat="48.60043" lon="1.97827">
        <ele>108.77</ele>
        <time>2017-09-19T08:16:49Z</time>
      </trkpt>
      <trkpt lat="48.60025" lon="1.97811">
        <ele>108.77</ele>
        <time>2017-09-19T08:17:01Z</time>
      </trkpt>
      <trkpt lat="48.60021" lon="1.9781">
        <ele>109.25</ele>
        <time>2017-09-19T08:17:25Z</time>
      </trkpt>
      <trkpt lat="48.60015" lon="1.97802">
        <ele>109.73</ele>
        <time>2017-09-19T08:17:35Z</time>
      </trkpt>
      <trkpt lat="48.60007" lon="1.97795">
        <ele>110.21</ele>
        <time>2017-09-19T08:17:49Z</time>
      </trkpt>
      <trkpt lat="48.60004" lon="1.97793">
        <ele>110.21</ele>
        <time>2017-09-19T08:18:07Z</time>
      </trkpt>
      <trkpt lat="48.60004" lon="1.97793">
        <ele>110.21</ele>
        <time>2017-09-19T08:18:22Z</time>
      </trkpt>
      <trkpt lat="48.59995" lon="1.97788">
        <ele>111.17</ele>
        <time>2017-09-19T08:18:42Z</time>
      </trkpt>
      <trkpt lat="48.59993" lon="1.97758">
        <ele>111.17</ele>
        <time>2017-09-19T08:18:57Z</time>
      </trkpt>
      <trkpt lat="48.59984" lon="1.97721">
        <ele>111.17</ele>
        <time>2017-09-19T08:19:13Z</time>
      </trkpt>
      <trkpt lat="48.5997" lon="1.97694">
        <ele>111.17</ele>
        <time>2017-09-19T08:19:27Z</time>
      </trkpt>
      <trkpt lat="48.59957" lon="1.97681">
        <ele>111.65</ele>
        <time>2017-09-19T08:19:37Z</time>
      </trkpt>
      <trkpt lat="48.59954" lon="1.97672">
        <ele>112.13</ele>
        <time>2017-09-19T08:19:44Z</time>
      </trkpt>
      <trkpt lat="48.59939" lon="1.97638">
        <ele>114.05</ele>
        <time>2017-09-19T08:20:06Z</time>
      </trkpt>
      <trkpt lat="48.59924" lon="1.97613">
        <ele>115.5</ele>
        <time>2017-09-19T08:20:26Z</time>
      </trkpt>
      <trkpt lat="48.59902" lon="1.97573">
        <ele>116.46</ele>
        <time>2017-09-19T08:20:44Z</time>
      </trkpt>
      <trkpt lat="48.59884" lon="1.97539">
        <ele>117.42</ele>
        <time>2017-09-19T08:21:03Z</time>
      </trkpt>
      <trkpt lat="48.59883" lon="1.97532">
        <ele>111.17</ele>
        <time>2017-09-19T08:21:09Z</time>
      </trkpt>
      <trkpt lat="48.59883" lon="1.97532">
        <ele>115.01</ele>
        <time>2017-09-19T08:21:10Z</time>
      </trkpt>
      <trkpt lat="48.59883" lon="1.97532">
        <ele>124.63</ele>
        <time>2017-09-19T08:21:12Z</time>
      </trkpt>
      <trkpt lat="48.59883" lon="1.97533">
        <ele>118.38</ele>
        <time>2017-09-19T08:21:13Z</time>
      </trkpt>
      <trkpt lat="48.59883" lon="1.97536">
        <ele>117.42</ele>
        <time>2017-09-19T08:21:15Z</time>
      </trkpt>
      <trkpt lat="48.59881" lon="1.97538">
        <ele>116.46</ele>
        <time>2017-09-19T08:21:31Z</time>
      </trkpt>
      <trkpt lat="48.59882" lon="1.97537">
        <ele>119.82</ele>
        <time>2017-09-19T08:21:33Z</time>
      </trkpt>
      <trkpt lat="48.59882" lon="1.97534">
        <ele>111.17</ele>
        <time>2017-09-19T08:21:43Z</time>
      </trkpt>
      <trkpt lat="48.59882" lon="1.97534">
        <ele>121.26</ele>
        <time>2017-09-19T08:21:44Z</time>
      </trkpt>
      <trkpt lat="48.59882" lon="1.97534">
        <ele>117.42</ele>
        <time>2017-09-19T08:21:45Z</time>
      </trkpt>
      <trkpt lat="48.59872" lon="1.97499">
        <ele>117.9</ele>
        <time>2017-09-19T08:22:06Z</time>
      </trkpt>
      <trkpt lat="48.59856" lon="1.97466">
        <ele>118.86</ele>
        <time>2017-09-19T08:22:24Z</time>
      </trkpt>
      <trkpt lat="48.59847" lon="1.97446">
        <ele>119.82</ele>
        <time>2017-09-19T08:22:37Z</time>
      </trkpt>
      <trkpt lat="48.59832" lon="1.97416">
        <ele>120.78</ele>
        <time>2017-09-19T08:22:53Z</time>
      </trkpt>
      <trkpt lat="48.59818" lon="1.97388">
        <ele>121.74</ele>
        <time>2017-09-19T08:23:08Z</time>
      </trkpt>
      <trkpt lat="48.59806" lon="1.97366">
        <ele>122.71</ele>
        <time>2017-09-19T08:23:22Z</time>
      </trkpt>
      <trkpt lat="48.59804" lon="1.97362">
        <ele>122.71</ele>
        <time>2017-09-19T08:23:26Z</time>
      </trkpt>
      <trkpt lat="48.59789" lon="1.97331">
        <ele>123.67</ele>
        <time>2017-09-19T08:23:42Z</time>
      </trkpt>
      <trkpt lat="48.59783" lon="1.9731">
        <ele>124.63</ele>
        <time>2017-09-19T08:23:55Z</time>
      </trkpt>
      <trkpt lat="48.59771" lon="1.97284">
        <ele>125.11</ele>
        <time>2017-09-19T08:24:08Z</time>
      </trkpt>
      <trkpt lat="48.59761" lon="1.97271">
        <ele>126.55</ele>
        <time>2017-09-19T08:24:17Z</time>
      </trkpt>
      <trkpt lat="48.59749" lon="1.97261">
        <ele>126.55</ele>
        <time>2017-09-19T08:24:28Z</time>
      </trkpt>
      <trkpt lat="48.59743" lon="1.97243">
        <ele>126.55</ele>
        <time>2017-09-19T08:24:44Z</time>
      </trkpt>
      <trkpt lat="48.59738" lon="1.97241">
        <ele>126.55</ele>
        <time>2017-09-19T08:25:08Z</time>
      </trkpt>
      <trkpt lat="48.59742" lon="1.97242">
        <ele>126.07</ele>
        <time>2017-09-19T08:25:32Z</time>
      </trkpt>
      <trkpt lat="48.59741" lon="1.97242">
        <ele>125.59</ele>
        <time>2017-09-19T08:25:57Z</time>
      </trkpt>
      <trkpt lat="48.5974" lon="1.97242">
        <ele>125.59</ele>
        <time>2017-09-19T08:26:13Z</time>
      </trkpt>
      <trkpt lat="48.59742" lon="1.97239">
        <ele>125.59</ele>
        <time>2017-09-19T08:26:34Z</time>
      </trkpt>
      <trkpt lat="48.59756" lon="1.97229">
        <ele>125.59</ele>
        <time>2017-09-19T08:26:52Z</time>
      </trkpt>
      <trkpt lat="48.59766" lon="1.97225">
        <ele>126.07</ele>
        <time>2017-09-19T08:27:00Z</time>
      </trkpt>
      <trkpt lat="48.59793" lon="1.97215">
        <ele>125.11</ele>
        <time>2017-09-19T08:27:21Z</time>
      </trkpt>
      <trkpt lat="48.59803" lon="1.97209">
        <ele>125.11</ele>
        <time>2017-09-19T08:27:37Z</time>
      </trkpt>
      <trkpt lat="48.59819" lon="1.97203">
        <ele>125.11</ele>
        <time>2017-09-19T08:27:47Z</time>
      </trkpt>
      <trkpt lat="48.59851" lon="1.97191">
        <ele>125.59</ele>
        <time>2017-09-19T08:28:06Z</time>
      </trkpt>
      <trkpt lat="48.59876" lon="1.97179">
        <ele>126.55</ele>
        <time>2017-09-19T08:28:27Z</time>
      </trkpt>
      <trkpt lat="48.59897" lon="1.97171">
        <ele>127.51</ele>
        <time>2017-09-19T08:28:47Z</time>
      </trkpt>
      <trkpt lat="48.59909" lon="1.9717">
        <ele>128.95</ele>
        <time>2017-09-19T08:28:58Z</time>
      </trkpt>
      <trkpt lat="48.59919" lon="1.97167">
        <ele>128.95</ele>
        <time>2017-09-19T08:29:02Z</time>
      </trkpt>
      <trkpt lat="48.59937" lon="1.97156">
        <ele>129.92</ele>
        <time>2017-09-19T08:29:13Z</time>
      </trkpt>
      <trkpt lat="48.59964" lon="1.97142">
        <ele>131.36</ele>
        <time>2017-09-19T08:29:31Z</time>
      </trkpt>
      <trkpt lat="48.59975" lon="1.97139">
        <ele>131.84</ele>
        <time>2017-09-19T08:29:42Z</time>
      </trkpt>
      <trkpt lat="48.59995" lon="1.9714">
        <ele>131.36</ele>
        <time>2017-09-19T08:29:58Z</time>
      </trkpt>
      <trkpt lat="48.60024" lon="1.97131">
        <ele>130.88</ele>
        <time>2017-09-19T08:30:15Z</time>
      </trkpt>
      <trkpt lat="48.6004" lon="1.97115">
        <ele>130.4</ele>
        <time>2017-09-19T08:30:26Z</time>
      </trkpt>
      <trkpt lat="48.60063" lon="1.97097">
        <ele>130.4</ele>
        <time>2017-09-19T08:30:41Z</time>
      </trkpt>
      <trkpt lat="48.60069" lon="1.97089">
        <ele>130.4</ele>
        <time>2017-09-19T08:30:48Z</time>
      </trkpt>
      <trkpt lat="48.60092" lon="1.97079">
        <ele>128.47</ele>
        <time>2017-09-19T08:31:07Z</time>
      </trkpt>
      <trkpt lat="48.60102" lon="1.97077">
        <ele>127.99</ele>
        <time>2017-09-19T08:31:13Z</time>
      </trkpt>
      <trkpt lat="48.60132" lon="1.9708">
        <ele>125.11</ele>
        <time>2017-09-19T08:31:32Z</time>
      </trkpt>
      <trkpt lat="48.60153" lon="1.97082">
        <ele>122.22</ele>
        <time>2017-09-19T08:31:49Z</time>
      </trkpt>
      <trkpt lat="48.60177" lon="1.97082">
        <ele>120.78</ele>
        <time>2017-09-19T08:32:04Z</time>
      </trkpt>
      <trkpt lat="48.60193" lon="1.97085">
        <ele>119.34</ele>
        <time>2017-09-19T08:32:16Z</time>
      </trkpt>
      <trkpt lat="48.60206" lon="1.97091">
        <ele>118.38</ele>
        <time>2017-09-19T08:32:24Z</time>
      </trkpt>
      <trkpt lat="48.60227" lon="1.97107">
        <ele>116.94</ele>
        <time>2017-09-19T08:32:39Z</time>
      </trkpt>
      <trkpt lat="48.60254" lon="1.971">
        <ele>115.01</ele>
        <time>2017-09-19T08:32:53Z</time>
      </trkpt>
      <trkpt lat="48.60259" lon="1.97094">
        <ele>115.98</ele>
        <time>2017-09-19T08:32:57Z</time>
      </trkpt>
      <trkpt lat="48.60261" lon="1.97087">
        <ele>115.5</ele>
        <time>2017-09-19T08:33:00Z</time>
      </trkpt>
      <trkpt lat="48.60264" lon="1.97082">
        <ele>115.5</ele>
        <time>2017-09-19T08:33:12Z</time>
      </trkpt>
      <trkpt lat="48.60267" lon="1.9708">
        <ele>115.01</ele>
        <time>2017-09-19T08:33:24Z</time>
      </trkpt>
      <trkpt lat="48.60267" lon="1.97078">
        <ele>115.01</ele>
        <time>2017-09-19T08:33:26Z</time>
      </trkpt>
      <trkpt lat="48.6027" lon="1.97074">
        <ele>115.01</ele>
        <time>2017-09-19T08:33:29Z</time>
      </trkpt>
      <trkpt lat="48.60273" lon="1.97069">
        <ele>114.53</ele>
        <time>2017-09-19T08:33:34Z</time>
      </trkpt>
      <trkpt lat="48.60276" lon="1.97063">
        <ele>114.05</ele>
        <time>2017-09-19T08:33:38Z</time>
      </trkpt>
      <trkpt lat="48.60279" lon="1.97056">
        <ele>113.57</ele>
        <time>2017-09-19T08:33:42Z</time>
      </trkpt>
      <trkpt lat="48.60281" lon="1.97044">
        <ele>113.09</ele>
        <time>2017-09-19T08:33:50Z</time>
      </trkpt>
      <trkpt lat="48.60286" lon="1.97036">
        <ele>113.09</ele>
        <time>2017-09-19T08:33:55Z</time>
      </trkpt>
      <trkpt lat="48.6029" lon="1.97028">
        <ele>113.09</ele>
        <time>2017-09-19T08:34:06Z</time>
      </trkpt>
      <trkpt lat="48.60292" lon="1.97034">
        <ele>113.09</ele>
        <time>2017-09-19T08:34:11Z</time>
      </trkpt>
      <trkpt lat="48.60294" lon="1.97035">
        <ele>112.61</ele>
        <time>2017-09-19T08:34:13Z</time>
      </trkpt>
      <trkpt lat="48.60299" lon="1.97051">
        <ele>112.13</ele>
        <time>2017-09-19T08:34:25Z</time>
      </trkpt>
      <trkpt lat="48.603" lon="1.97053">
        <ele>112.13</ele>
        <time>2017-09-19T08:34:26Z</time>
      </trkpt>
      <trkpt lat="48.60315" lon="1.9708">
        <ele>111.65</ele>
        <time>2017-09-19T08:34:41Z</time>
      </trkpt>
      <trkpt lat="48.60332" lon="1.97113">
        <ele>111.17</ele>
        <time>2017-09-19T08:34:59Z</time>
      </trkpt>
      <trkpt lat="48.60358" lon="1.97146">
        <ele>110.69</ele>
        <time>2017-09-19T08:35:19Z</time>
      </trkpt>
      <trkpt lat="48.60375" lon="1.97175">
        <ele>110.69</ele>
        <time>2017-09-19T08:35:37Z</time>
      </trkpt>
      <trkpt lat="48.60403" lon="1.97206">
        <ele>109.73</ele>
        <time>2017-09-19T08:35:58Z</time>
      </trkpt>
      <trkpt lat="48.60408" lon="1.97213">
        <ele>110.21</ele>
        <time>2017-09-19T08:36:03Z</time>
      </trkpt>
      <trkpt lat="48.60431" lon="1.9724">
        <ele>109.25</ele>
        <time>2017-09-19T08:36:20Z</time>
      </trkpt>
      <trkpt lat="48.6045" lon="1.97265">
        <ele>108.29</ele>
        <time>2017-09-19T08:36:39Z</time>
      </trkpt>
      <trkpt lat="48.60479" lon="1.97283">
        <ele>107.81</ele>
        <time>2017-09-19T08:36:57Z</time>
      </trkpt>
      <trkpt lat="48.60504" lon="1.97287">
        <ele>106.84</ele>
        <time>2017-09-19T08:37:15Z</time>
      </trkpt>
      <trkpt lat="48.6053" lon="1.97306">
        <ele>105.4</ele>
        <time>2017-09-19T08:37:33Z</time>
      </trkpt>
      <trkpt lat="48.60553" lon="1.9732">
        <ele>104.92</ele>
        <time>2017-09-19T08:37:51Z</time>
      </trkpt>
      <trkpt lat="48.60583" lon="1.97352">
        <ele>103.96</ele>
        <time>2017-09-19T08:38:15Z</time>
      </trkpt>
      <trkpt lat="48.6059" lon="1.9736">
        <ele>103.48</ele>
        <time>2017-09-19T08:38:21Z</time>
      </trkpt>
      <trkpt lat="48.60605" lon="1.97386">
        <ele>103</ele>
        <time>2017-09-19T08:38:38Z</time>
      </trkpt>
      <trkpt lat="48.60621" lon="1.97416">
        <ele>101.56</ele>
        <time>2017-09-19T08:38:55Z</time>
      </trkpt>
      <trkpt lat="48.60625" lon="1.97421">
        <ele>101.08</ele>
        <time>2017-09-19T08:38:58Z</time>
      </trkpt>
      <trkpt lat="48.60647" lon="1.97448">
        <ele>101.08</ele>
        <time>2017-09-19T08:39:16Z</time>
      </trkpt>
      <trkpt lat="48.60665" lon="1.97466">
        <ele>100.11</ele>
        <time>2017-09-19T08:39:32Z</time>
      </trkpt>
      <trkpt lat="48.60685" lon="1.97479">
        <ele>99.15</ele>
        <time>2017-09-19T08:39:52Z</time>
      </trkpt>
      <trkpt lat="48.60701" lon="1.97472">
        <ele>98.19</ele>
        <time>2017-09-19T08:40:09Z</time>
      </trkpt>
      <trkpt lat="48.60739" lon="1.97452">
        <ele>97.23</ele>
        <time>2017-09-19T08:40:27Z</time>
      </trkpt>
      <trkpt lat="48.60743" lon="1.97442">
        <ele>97.23</ele>
        <time>2017-09-19T08:40:44Z</time>
      </trkpt>
      <trkpt lat="48.60748" lon="1.97439">
        <ele>97.23</ele>
        <time>2017-09-19T08:41:06Z</time>
      </trkpt>
      <trkpt lat="48.60757" lon="1.97439">
        <ele>96.75</ele>
        <time>2017-09-19T08:41:28Z</time>
      </trkpt>
      <trkpt lat="48.60758" lon="1.97437">
        <ele>96.75</ele>
        <time>2017-09-19T08:41:49Z</time>
      </trkpt>
      <trkpt lat="48.60752" lon="1.97435">
        <ele>97.23</ele>
        <time>2017-09-19T08:42:05Z</time>
      </trkpt>
      <trkpt lat="48.60734" lon="1.97412">
        <ele>97.71</ele>
        <time>2017-09-19T08:42:22Z</time>
      </trkpt>
      <trkpt lat="48.60725" lon="1.97376">
        <ele>98.19</ele>
        <time>2017-09-19T08:42:40Z</time>
      </trkpt>
      <trkpt lat="48.60718" lon="1.97358">
        <ele>98.19</ele>
        <time>2017-09-19T08:42:51Z</time>
      </trkpt>
      <trkpt lat="48.60711" lon="1.97321">
        <ele>99.15</ele>
        <time>2017-09-19T08:43:09Z</time>
      </trkpt>
      <trkpt lat="48.60704" lon="1.97292">
        <ele>99.63</ele>
        <time>2017-09-19T08:43:26Z</time>
      </trkpt>
      <trkpt lat="48.60696" lon="1.97254">
        <ele>99.63</ele>
        <time>2017-09-19T08:43:44Z</time>
      </trkpt>
      <trkpt lat="48.60699" lon="1.97207">
        <ele>99.63</ele>
        <time>2017-09-19T08:44:01Z</time>
      </trkpt>
      <trkpt lat="48.60701" lon="1.97191">
        <ele>100.11</ele>
        <time>2017-09-19T08:44:07Z</time>
      </trkpt>
      <trkpt lat="48.60704" lon="1.97159">
        <ele>100.11</ele>
        <time>2017-09-19T08:44:20Z</time>
      </trkpt>
      <trkpt lat="48.60701" lon="1.97151">
        <ele>100.6</ele>
        <time>2017-09-19T08:44:24Z</time>
      </trkpt>
      <trkpt lat="48.60703" lon="1.97114">
        <ele>101.56</ele>
        <time>2017-09-19T08:44:40Z</time>
      </trkpt>
      <trkpt lat="48.60681" lon="1.97085">
        <ele>102.52</ele>
        <time>2017-09-19T08:44:59Z</time>
      </trkpt>
      <trkpt lat="48.60662" lon="1.97056">
        <ele>104.92</ele>
        <time>2017-09-19T08:45:16Z</time>
      </trkpt>
      <trkpt lat="48.60651" lon="1.97047">
        <ele>105.4</ele>
        <time>2017-09-19T08:45:23Z</time>
      </trkpt>
      <trkpt lat="48.60648" lon="1.97045">
        <ele>102.04</ele>
        <time>2017-09-19T08:45:26Z</time>
      </trkpt>
      <trkpt lat="48.60647" lon="1.97045">
        <ele>106.84</ele>
        <time>2017-09-19T08:45:27Z</time>
      </trkpt>
      <trkpt lat="48.60633" lon="1.97026">
        <ele>107.81</ele>
        <time>2017-09-19T08:45:47Z</time>
      </trkpt>
      <trkpt lat="48.60617" lon="1.97005">
        <ele>107.32</ele>
        <time>2017-09-19T08:45:58Z</time>
      </trkpt>
      <trkpt lat="48.60611" lon="1.97003">
        <ele>105.88</ele>
        <time>2017-09-19T08:46:03Z</time>
      </trkpt>
      <trkpt lat="48.60611" lon="1.97003">
        <ele>101.08</ele>
        <time>2017-09-19T08:46:04Z</time>
      </trkpt>
      <trkpt lat="48.60611" lon="1.97003">
        <ele>108.29</ele>
        <time>2017-09-19T08:46:05Z</time>
      </trkpt>
      <trkpt lat="48.60608" lon="1.97003">
        <ele>110.21</ele>
        <time>2017-09-19T08:46:15Z</time>
      </trkpt>
      <trkpt lat="48.60609" lon="1.97003">
        <ele>107.81</ele>
        <time>2017-09-19T08:46:18Z</time>
      </trkpt>
      <trkpt lat="48.60597" lon="1.96984">
        <ele>109.73</ele>
        <time>2017-09-19T08:46:35Z</time>
      </trkpt>
      <trkpt lat="48.60578" lon="1.96967">
        <ele>111.65</ele>
        <time>2017-09-19T08:46:51Z</time>
      </trkpt>
      <trkpt lat="48.60561" lon="1.96949">
        <ele>114.53</ele>
        <time>2017-09-19T08:47:10Z</time>
      </trkpt>
      <trkpt lat="48.60542" lon="1.96928">
        <ele>117.42</ele>
        <time>2017-09-19T08:47:28Z</time>
      </trkpt>
      <trkpt lat="48.60533" lon="1.96924">
        <ele>118.86</ele>
        <time>2017-09-19T08:47:45Z</time>
      </trkpt>
      <trkpt lat="48.60523" lon="1.96917">
        <ele>121.74</ele>
        <time>2017-09-19T08:48:00Z</time>
      </trkpt>
      <trkpt lat="48.60512" lon="1.969">
        <ele>124.63</ele>
        <time>2017-09-19T08:48:12Z</time>
      </trkpt>
      <trkpt lat="48.60488" lon="1.96878">
        <ele>126.07</ele>
        <time>2017-09-19T08:48:29Z</time>
      </trkpt>
      <trkpt lat="48.60469" lon="1.96856">
        <ele>129.43</ele>
        <time>2017-09-19T08:48:46Z</time>
      </trkpt>
      <trkpt lat="48.60447" lon="1.96835">
        <ele>131.36</ele>
        <time>2017-09-19T08:49:07Z</time>
      </trkpt>
      <trkpt lat="48.6043" lon="1.96818">
        <ele>131.84</ele>
        <time>2017-09-19T08:49:24Z</time>
      </trkpt>
      <trkpt lat="48.60419" lon="1.96813">
        <ele>130.4</ele>
        <time>2017-09-19T08:49:42Z</time>
      </trkpt>
      <trkpt lat="48.60419" lon="1.96813">
        <ele>133.28</ele>
        <time>2017-09-19T08:49:43Z</time>
      </trkpt>
      <trkpt lat="48.60419" lon="1.96812">
        <ele>128.95</ele>
        <time>2017-09-19T08:49:59Z</time>
      </trkpt>
      <trkpt lat="48.60419" lon="1.96812">
        <ele>134.72</ele>
        <time>2017-09-19T08:50:01Z</time>
      </trkpt>
      <trkpt lat="48.60419" lon="1.96812">
        <ele>131.36</ele>
        <time>2017-09-19T08:50:02Z</time>
      </trkpt>
      <trkpt lat="48.60419" lon="1.96812">
        <ele>134.72</ele>
        <time>2017-09-19T08:50:03Z</time>
      </trkpt>
      <trkpt lat="48.60423" lon="1.96812">
        <ele>132.8</ele>
        <time>2017-09-19T08:50:22Z</time>
      </trkpt>
      <trkpt lat="48.60422" lon="1.96813">
        <ele>133.28</ele>
        <time>2017-09-19T08:50:42Z</time>
      </trkpt>
      <trkpt lat="48.60421" lon="1.96813">
        <ele>126.55</ele>
        <time>2017-09-19T08:50:44Z</time>
      </trkpt>
      <trkpt lat="48.60421" lon="1.96814">
        <ele>138.57</ele>
        <time>2017-09-19T08:50:45Z</time>
      </trkpt>
      <trkpt lat="48.60421" lon="1.96814">
        <ele>133.28</ele>
        <time>2017-09-19T08:50:46Z</time>
      </trkpt>
      <trkpt lat="48.60417" lon="1.96799">
        <ele>133.76</ele>
        <time>2017-09-19T08:51:03Z</time>
      </trkpt>
      <trkpt lat="48.60418" lon="1.96795">
        <ele>133.76</ele>
        <time>2017-09-19T08:51:16Z</time>
      </trkpt>
      <trkpt lat="48.60419" lon="1.96797">
        <ele>133.76</ele>
        <time>2017-09-19T08:51:31Z</time>
      </trkpt>
      <trkpt lat="48.60418" lon="1.96797">
        <ele>134.24</ele>
        <time>2017-09-19T08:51:43Z</time>
      </trkpt>
      <trkpt lat="48.60416" lon="1.96796">
        <ele>134.24</ele>
        <time>2017-09-19T08:51:54Z</time>
      </trkpt>
      <trkpt lat="48.60412" lon="1.96795">
        <ele>135.2</ele>
        <time>2017-09-19T08:52:13Z</time>
      </trkpt>
      <trkpt lat="48.60412" lon="1.96795">
        <ele>134.24</ele>
        <time>2017-09-19T08:52:26Z</time>
      </trkpt>
      <trkpt lat="48.60411" lon="1.96795">
        <ele>134.24</ele>
        <time>2017-09-19T08:52:45Z</time>
      </trkpt>
      <trkpt lat="48.60411" lon="1.96795">
        <ele>134.24</ele>
        <time>2017-09-19T08:53:05Z</time>
      </trkpt>
      <trkpt lat="48.60411" lon="1.96792">
        <ele>134.72</ele>
        <time>2017-09-19T08:53:25Z</time>
      </trkpt>
      <trkpt lat="48.6041" lon="1.96792">
        <ele>134.72</ele>
        <time>2017-09-19T08:53:41Z</time>
      </trkpt>
      <trkpt lat="48.60411" lon="1.96795">
        <ele>134.72</ele>
        <time>2017-09-19T08:54:04Z</time>
      </trkpt>
      <trkpt lat="48.604" lon="1.9681">
        <ele>135.2</ele>
        <time>2017-09-19T08:54:21Z</time>
      </trkpt>
      <trkpt lat="48.60387" lon="1.96825">
        <ele>134.72</ele>
        <time>2017-09-19T08:54:36Z</time>
      </trkpt>
      <trkpt lat="48.60386" lon="1.96832">
        <ele>133.76</ele>
        <time>2017-09-19T08:54:56Z</time>
      </trkpt>
      <trkpt lat="48.60381" lon="1.96835">
        <ele>132.32</ele>
        <time>2017-09-19T08:55:17Z</time>
      </trkpt>
      <trkpt lat="48.60376" lon="1.96841">
        <ele>129.43</ele>
        <time>2017-09-19T08:55:31Z</time>
      </trkpt>
      <trkpt lat="48.60369" lon="1.96861">
        <ele>126.07</ele>
        <time>2017-09-19T08:55:44Z</time>
      </trkpt>
      <trkpt lat="48.60354" lon="1.96888">
        <ele>123.19</ele>
        <time>2017-09-19T08:55:58Z</time>
      </trkpt>
      <trkpt lat="48.60337" lon="1.96921">
        <ele>120.3</ele>
        <time>2017-09-19T08:56:14Z</time>
      </trkpt>
      <trkpt lat="48.6033" lon="1.9694">
        <ele>118.38</ele>
        <time>2017-09-19T08:56:26Z</time>
      </trkpt>
      <trkpt lat="48.60329" lon="1.96944">
        <ele>117.9</ele>
        <time>2017-09-19T08:56:28Z</time>
      </trkpt>
      <trkpt lat="48.60319" lon="1.96969">
        <ele>116.46</ele>
        <time>2017-09-19T08:56:45Z</time>
      </trkpt>
      <trkpt lat="48.60301" lon="1.96989">
        <ele>114.53</ele>
        <time>2017-09-19T08:57:02Z</time>
      </trkpt>
      <trkpt lat="48.60292" lon="1.96991">
        <ele>114.53</ele>
        <time>2017-09-19T08:57:12Z</time>
      </trkpt>
      <trkpt lat="48.60289" lon="1.96979">
        <ele>114.53</ele>
        <time>2017-09-19T08:57:26Z</time>
      </trkpt>
      <trkpt lat="48.60281" lon="1.96953">
        <ele>115.5</ele>
        <time>2017-09-19T08:57:40Z</time>
      </trkpt>
      <trkpt lat="48.60278" lon="1.96939">
        <ele>115.98</ele>
        <time>2017-09-19T08:57:46Z</time>
      </trkpt>
      <trkpt lat="48.60269" lon="1.9693">
        <ele>116.46</ele>
        <time>2017-09-19T08:58:00Z</time>
      </trkpt>
      <trkpt lat="48.60266" lon="1.96922">
        <ele>116.46</ele>
        <time>2017-09-19T08:58:07Z</time>
      </trkpt>
      <trkpt lat="48.60249" lon="1.96881">
        <ele>117.42</ele>
        <time>2017-09-19T08:58:22Z</time>
      </trkpt>
      <trkpt lat="48.60238" lon="1.96853">
        <ele>118.38</ele>
        <time>2017-09-19T08:58:37Z</time>
      </trkpt>
      <trkpt lat="48.60233" lon="1.96834">
        <ele>119.34</ele>
        <time>2017-09-19T08:58:47Z</time>
      </trkpt>
      <trkpt lat="48.60231" lon="1.9683">
        <ele>119.34</ele>
        <time>2017-09-19T08:58:49Z</time>
      </trkpt>
      <trkpt lat="48.60214" lon="1.96783">
        <ele>120.3</ele>
        <time>2017-09-19T08:59:07Z</time>
      </trkpt>
      <trkpt lat="48.60205" lon="1.96748">
        <ele>120.3</ele>
        <time>2017-09-19T08:59:24Z</time>
      </trkpt>
      <trkpt lat="48.60202" lon="1.96715">
        <ele>120.3</ele>
        <time>2017-09-19T08:59:37Z</time>
      </trkpt>
      <trkpt lat="48.60197" lon="1.96703">
        <ele>120.3</ele>
        <time>2017-09-19T08:59:41Z</time>
      </trkpt>
      <trkpt lat="48.60195" lon="1.96674">
        <ele>120.78</ele>
        <time>2017-09-19T08:59:55Z</time>
      </trkpt>
      <trkpt lat="48.60195" lon="1.96664">
        <ele>120.78</ele>
        <time>2017-09-19T08:59:59Z</time>
      </trkpt>
      <trkpt lat="48.60193" lon="1.96635">
        <ele>121.26</ele>
        <time>2017-09-19T09:00:12Z</time>
      </trkpt>
      <trkpt lat="48.60198" lon="1.96601">
        <ele>122.71</ele>
        <time>2017-09-19T09:00:26Z</time>
      </trkpt>
      <trkpt lat="48.60209" lon="1.96566">
        <ele>122.71</ele>
        <time>2017-09-19T09:00:42Z</time>
      </trkpt>
      <trkpt lat="48.6021" lon="1.96564">
        <ele>123.19</ele>
        <time>2017-09-19T09:00:43Z</time>
      </trkpt>
      <trkpt lat="48.60199" lon="1.96521">
        <ele>123.67</ele>
        <time>2017-09-19T09:00:59Z</time>
      </trkpt>
      <trkpt lat="48.60202" lon="1.96486">
        <ele>123.67</ele>
        <time>2017-09-19T09:01:14Z</time>
      </trkpt>
      <trkpt lat="48.60196" lon="1.96442">
        <ele>125.59</ele>
        <time>2017-09-19T09:01:33Z</time>
      </trkpt>
      <trkpt lat="48.6019" lon="1.96398">
        <ele>125.11</ele>
        <time>2017-09-19T09:01:49Z</time>
      </trkpt>
      <trkpt lat="48.60188" lon="1.96373">
        <ele>125.59</ele>
        <time>2017-09-19T09:02:03Z</time>
      </trkpt>
      <trkpt lat="48.60183" lon="1.96356">
        <ele>125.11</ele>
        <time>2017-09-19T09:02:12Z</time>
      </trkpt>
      <trkpt lat="48.60182" lon="1.96346">
        <ele>124.15</ele>
        <time>2017-09-19T09:02:16Z</time>
      </trkpt>
      <trkpt lat="48.60175" lon="1.96316">
        <ele>122.22</ele>
        <time>2017-09-19T09:02:31Z</time>
      </trkpt>
      <trkpt lat="48.60175" lon="1.96307">
        <ele>121.26</ele>
        <time>2017-09-19T09:02:34Z</time>
      </trkpt>
      <trkpt lat="48.60156" lon="1.9627">
        <ele>118.86</ele>
        <time>2017-09-19T09:02:52Z</time>
      </trkpt>
      <trkpt lat="48.60144" lon="1.96247">
        <ele>116.94</ele>
        <time>2017-09-19T09:03:04Z</time>
      </trkpt>
      <trkpt lat="48.60144" lon="1.96212">
        <ele>114.05</ele>
        <time>2017-09-19T09:03:18Z</time>
      </trkpt>
      <trkpt lat="48.60146" lon="1.96175">
        <ele>112.13</ele>
        <time>2017-09-19T09:03:35Z</time>
      </trkpt>
      <trkpt lat="48.60148" lon="1.96129">
        <ele>110.69</ele>
        <time>2017-09-19T09:03:51Z</time>
      </trkpt>
      <trkpt lat="48.60147" lon="1.96098">
        <ele>109.25</ele>
        <time>2017-09-19T09:04:05Z</time>
      </trkpt>
      <trkpt lat="48.60148" lon="1.96092">
        <ele>109.25</ele>
        <time>2017-09-19T09:04:08Z</time>
      </trkpt>
      <trkpt lat="48.60148" lon="1.96068">
        <ele>108.29</ele>
        <time>2017-09-19T09:04:23Z</time>
      </trkpt>
      <trkpt lat="48.60144" lon="1.96063">
        <ele>108.77</ele>
        <time>2017-09-19T09:04:44Z</time>
      </trkpt>
      <trkpt lat="48.60144" lon="1.96065">
        <ele>108.77</ele>
        <time>2017-09-19T09:04:57Z</time>
      </trkpt>
      <trkpt lat="48.60144" lon="1.96065">
        <ele>108.77</ele>
        <time>2017-09-19T09:05:14Z</time>
      </trkpt>
      <trkpt lat="48.60144" lon="1.96062">
        <ele>108.77</ele>
        <time>2017-09-19T09:05:35Z</time>
      </trkpt>
      <trkpt lat="48.60145" lon="1.9605">
        <ele>108.77</ele>
        <time>2017-09-19T09:05:45Z</time>
      </trkpt>
      <trkpt lat="48.60158" lon="1.96021">
        <ele>111.17</ele>
        <time>2017-09-19T09:06:01Z</time>
      </trkpt>
      <trkpt lat="48.6016" lon="1.96018">
        <ele>110.69</ele>
        <time>2017-09-19T09:06:03Z</time>
      </trkpt>
      <trkpt lat="48.60173" lon="1.95996">
        <ele>111.65</ele>
        <time>2017-09-19T09:06:15Z</time>
      </trkpt>
      <trkpt lat="48.60189" lon="1.95953">
        <ele>108.77</ele>
        <time>2017-09-19T09:06:35Z</time>
      </trkpt>
      <trkpt lat="48.60206" lon="1.95927">
        <ele>106.36</ele>
        <time>2017-09-19T09:06:50Z</time>
      </trkpt>
      <trkpt lat="48.60218" lon="1.95902">
        <ele>103</ele>
        <time>2017-09-19T09:07:04Z</time>
      </trkpt>
      <trkpt lat="48.60227" lon="1.95883">
        <ele>101.56</ele>
        <time>2017-09-19T09:07:17Z</time>
      </trkpt>
      <trkpt lat="48.60236" lon="1.95854">
        <ele>100.6</ele>
        <time>2017-09-19T09:07:33Z</time>
      </trkpt>
      <trkpt lat="48.60251" lon="1.95822">
        <ele>99.63</ele>
        <time>2017-09-19T09:07:51Z</time>
      </trkpt>
      <trkpt lat="48.60264" lon="1.95799">
        <ele>99.15</ele>
        <time>2017-09-19T09:08:06Z</time>
      </trkpt>
      <trkpt lat="48.6028" lon="1.95773">
        <ele>99.15</ele>
        <time>2017-09-19T09:08:20Z</time>
      </trkpt>
      <trkpt lat="48.6029" lon="1.95752">
        <ele>99.15</ele>
        <time>2017-09-19T09:08:30Z</time>
      </trkpt>
      <trkpt lat="48.60294" lon="1.95744">
        <ele>98.67</ele>
        <time>2017-09-19T09:08:34Z</time>
      </trkpt>
      <trkpt lat="48.60314" lon="1.95707">
        <ele>98.67</ele>
        <time>2017-09-19T09:08:54Z</time>
      </trkpt>
      <trkpt lat="48.60328" lon="1.95676">
        <ele>97.71</ele>
        <time>2017-09-19T09:09:12Z</time>
      </trkpt>
      <trkpt lat="48.60349" lon="1.95631">
        <ele>99.63</ele>
        <time>2017-09-19T09:09:34Z</time>
      </trkpt>
      <trkpt lat="48.6035" lon="1.95627">
        <ele>99.63</ele>
        <time>2017-09-19T09:09:36Z</time>
      </trkpt>
      <trkpt lat="48.60353" lon="1.95598">
        <ele>98.67</ele>
        <time>2017-09-19T09:09:53Z</time>
      </trkpt>
      <trkpt lat="48.60336" lon="1.9557">
        <ele>98.67</ele>
        <time>2017-09-19T09:10:13Z</time>
      </trkpt>
      <trkpt lat="48.60324" lon="1.95556">
        <ele>98.67</ele>
        <time>2017-09-19T09:10:26Z</time>
      </trkpt>
      <trkpt lat="48.60297" lon="1.95526">
        <ele>99.15</ele>
        <time>2017-09-19T09:10:45Z</time>
      </trkpt>
      <trkpt lat="48.6029" lon="1.9552">
        <ele>98.19</ele>
        <time>2017-09-19T09:10:51Z</time>
      </trkpt>
      <trkpt lat="48.60273" lon="1.95507">
        <ele>98.19</ele>
        <time>2017-09-19T09:11:09Z</time>
      </trkpt>
      <trkpt lat="48.60272" lon="1.95505">
        <ele>98.19</ele>
        <time>2017-09-19T09:11:10Z</time>
      </trkpt>
      <trkpt lat="48.60268" lon="1.95494">
        <ele>98.19</ele>
        <time>2017-09-19T09:11:14Z</time>
      </trkpt>
      <trkpt lat="48.60241" lon="1.95459">
        <ele>99.15</ele>
        <time>2017-09-19T09:11:32Z</time>
      </trkpt>
      <trkpt lat="48.60224" lon="1.9544">
        <ele>99.63</ele>
        <time>2017-09-19T09:11:50Z</time>
      </trkpt>
      <trkpt lat="48.60215" lon="1.95425">
        <ele>98.67</ele>
        <time>2017-09-19T09:12:06Z</time>
      </trkpt>
      <trkpt lat="48.60201" lon="1.95409">
        <ele>99.63</ele>
        <time>2017-09-19T09:12:26Z</time>
      </trkpt>
      <trkpt lat="48.6018" lon="1.95387">
        <ele>100.11</ele>
        <time>2017-09-19T09:12:45Z</time>
      </trkpt>
      <trkpt lat="48.60163" lon="1.95371">
        <ele>100.11</ele>
        <time>2017-09-19T09:13:02Z</time>
      </trkpt>
      <trkpt lat="48.60128" lon="1.95336">
        <ele>101.08</ele>
        <time>2017-09-19T09:13:21Z</time>
      </trkpt>
      <trkpt lat="48.60105" lon="1.95313">
        <ele>101.08</ele>
        <time>2017-09-19T09:13:39Z</time>
      </trkpt>
      <trkpt lat="48.60081" lon="1.95302">
        <ele>100.11</ele>
        <time>2017-09-19T09:13:56Z</time>
      </trkpt>
      <trkpt lat="48.60073" lon="1.95309">
        <ele>100.11</ele>
        <time>2017-09-19T09:14:02Z</time>
      </trkpt>
      <trkpt lat="48.6005" lon="1.95305">
        <ele>100.6</ele>
        <time>2017-09-19T09:14:13Z</time>
      </trkpt>
      <trkpt lat="48.60034" lon="1.95318">
        <ele>102.52</ele>
        <time>2017-09-19T09:14:30Z</time>
      </trkpt>
      <trkpt lat="48.60029" lon="1.95328">
        <ele>102.04</ele>
        <time>2017-09-19T09:14:39Z</time>
      </trkpt>
      <trkpt lat="48.60015" lon="1.95356">
        <ele>100.11</ele>
        <time>2017-09-19T09:14:57Z</time>
      </trkpt>
      <trkpt lat="48.60014" lon="1.95361">
        <ele>96.75</ele>
        <time>2017-09-19T09:15:00Z</time>
      </trkpt>
      <trkpt lat="48.60014" lon="1.95362">
        <ele>100.6</ele>
        <time>2017-09-19T09:15:02Z</time>
      </trkpt>
      <trkpt lat="48.60013" lon="1.95362">
        <ele>99.15</ele>
        <time>2017-09-19T09:15:03Z</time>
      </trkpt>
      <trkpt lat="48.60013" lon="1.95362">
        <ele>102.52</ele>
        <time>2017-09-19T09:15:05Z</time>
      </trkpt>
      <trkpt lat="48.60013" lon="1.95363">
        <ele>105.88</ele>
        <time>2017-09-19T09:15:06Z</time>
      </trkpt>
      <trkpt lat="48.60013" lon="1.95363">
        <ele>101.08</ele>
        <time>2017-09-19T09:15:07Z</time>
      </trkpt>
      <trkpt lat="48.60013" lon="1.95363">
        <ele>100.6</ele>
        <time>2017-09-19T09:15:08Z</time>
      </trkpt>
      <trkpt lat="48.60005" lon="1.95381">
        <ele>101.08</ele>
        <time>2017-09-19T09:15:16Z</time>
      </trkpt>
      <trkpt lat="48.60002" lon="1.95385">
        <ele>100.6</ele>
        <time>2017-09-19T09:15:18Z</time>
      </trkpt>
      <trkpt lat="48.59989" lon="1.95409">
        <ele>102.04</ele>
        <time>2017-09-19T09:15:35Z</time>
      </trkpt>
      <trkpt lat="48.59989" lon="1.9541">
        <ele>102.04</ele>
        <time>2017-09-19T09:15:36Z</time>
      </trkpt>
      <trkpt lat="48.59979" lon="1.95441">
        <ele>102.52</ele>
        <time>2017-09-19T09:15:53Z</time>
      </trkpt>
      <trkpt lat="48.59963" lon="1.95471">
        <ele>103</ele>
        <time>2017-09-19T09:16:11Z</time>
      </trkpt>
      <trkpt lat="48.59949" lon="1.95486">
        <ele>105.4</ele>
        <time>2017-09-19T09:16:24Z</time>
      </trkpt>
      <trkpt lat="48.59944" lon="1.95503">
        <ele>106.36</ele>
        <time>2017-09-19T09:16:32Z</time>
      </trkpt>
      <trkpt lat="48.59927" lon="1.95532">
        <ele>107.81</ele>
        <time>2017-09-19T09:16:49Z</time>
      </trkpt>
      <trkpt lat="48.59923" lon="1.95544">
        <ele>107.81</ele>
        <time>2017-09-19T09:16:54Z</time>
      </trkpt>
      <trkpt lat="48.59919" lon="1.95555">
        <ele>107.81</ele>
        <time>2017-09-19T09:16:59Z</time>
      </trkpt>
      <trkpt lat="48.59912" lon="1.95575">
        <ele>107.81</ele>
        <time>2017-09-19T09:17:10Z</time>
      </trkpt>
      <trkpt lat="48.59904" lon="1.95601">
        <ele>107.81</ele>
        <time>2017-09-19T09:17:24Z</time>
      </trkpt>
      <trkpt lat="48.59903" lon="1.95602">
        <ele>107.81</ele>
        <time>2017-09-19T09:17:47Z</time>
      </trkpt>
      <trkpt lat="48.59898" lon="1.95608">
        <ele>107.32</ele>
        <time>2017-09-19T09:18:07Z</time>
      </trkpt>
      <trkpt lat="48.59887" lon="1.95622">
        <ele>107.32</ele>
        <time>2017-09-19T09:18:22Z</time>
      </trkpt>
      <trkpt lat="48.5988" lon="1.95639">
        <ele>107.32</ele>
        <time>2017-09-19T09:18:37Z</time>
      </trkpt>
      <trkpt lat="48.59875" lon="1.95651">
        <ele>106.84</ele>
        <time>2017-09-19T09:18:56Z</time>
      </trkpt>
      <trkpt lat="48.59876" lon="1.95664">
        <ele>107.32</ele>
        <time>2017-09-19T09:19:08Z</time>
      </trkpt>
      <trkpt lat="48.59875" lon="1.95667">
        <ele>107.32</ele>
        <time>2017-09-19T09:19:22Z</time>
      </trkpt>
      <trkpt lat="48.59874" lon="1.95668">
        <ele>106.36</ele>
        <time>2017-09-19T09:19:40Z</time>
      </trkpt>
      <trkpt lat="48.59875" lon="1.95668">
        <ele>105.88</ele>
        <time>2017-09-19T09:20:03Z</time>
      </trkpt>
      <trkpt lat="48.5987" lon="1.9568">
        <ele>106.36</ele>
        <time>2017-09-19T09:20:19Z</time>
      </trkpt>
      <trkpt lat="48.59865" lon="1.95688">
        <ele>106.36</ele>
        <time>2017-09-19T09:20:25Z</time>
      </trkpt>
      <trkpt lat="48.59855" lon="1.95708">
        <ele>106.36</ele>
        <time>2017-09-19T09:20:36Z</time>
      </trkpt>
      <trkpt lat="48.59844" lon="1.95733">
        <ele>106.36</ele>
        <time>2017-09-19T09:20:52Z</time>
      </trkpt>
      <trkpt lat="48.59834" lon="1.95751">
        <ele>106.84</ele>
        <time>2017-09-19T09:21:01Z</time>
      </trkpt>
      <trkpt lat="48.5982" lon="1.95781">
        <ele>107.32</ele>
        <time>2017-09-19T09:21:17Z</time>
      </trkpt>
      <trkpt lat="48.59806" lon="1.95807">
        <ele>107.32</ele>
        <time>2017-09-19T09:21:33Z</time>
      </trkpt>
      <trkpt lat="48.59795" lon="1.95831">
        <ele>107.32</ele>
        <time>2017-09-19T09:21:48Z</time>
      </trkpt>
      <trkpt lat="48.59788" lon="1.95849">
        <ele>108.29</ele>
        <time>2017-09-19T09:21:59Z</time>
      </trkpt>
      <trkpt lat="48.59786" lon="1.95855">
        <ele>107.81</ele>
        <time>2017-09-19T09:22:02Z</time>
      </trkpt>
      <trkpt lat="48.59772" lon="1.95881">
        <ele>109.25</ele>
        <time>2017-09-19T09:22:19Z</time>
      </trkpt>
      <trkpt lat="48.59759" lon="1.95912">
        <ele>109.73</ele>
        <time>2017-09-19T09:22:33Z</time>
      </trkpt>
      <trkpt lat="48.59758" lon="1.95914">
        <ele>109.73</ele>
        <time>2017-09-19T09:22:34Z</time>
      </trkpt>
      <trkpt lat="48.59741" lon="1.95947">
        <ele>111.17</ele>
        <time>2017-09-19T09:22:51Z</time>
      </trkpt>
      <trkpt lat="48.59731" lon="1.9598">
        <ele>111.65</ele>
        <time>2017-09-19T09:23:05Z</time>
      </trkpt>
      <trkpt lat="48.59719" lon="1.96009">
        <ele>112.13</ele>
        <time>2017-09-19T09:23:20Z</time>
      </trkpt>
      <trkpt lat="48.59705" lon="1.96039">
        <ele>114.05</ele>
        <time>2017-09-19T09:23:37Z</time>
      </trkpt>
      <trkpt lat="48.59693" lon="1.96067">
        <ele>117.9</ele>
        <time>2017-09-19T09:23:54Z</time>
      </trkpt>
      <trkpt lat="48.59678" lon="1.96092">
        <ele>118.86</ele>
        <time>2017-09-19T09:24:10Z</time>
      </trkpt>
      <trkpt lat="48.59669" lon="1.9611">
        <ele>120.78</ele>
        <time>2017-09-19T09:24:19Z</time>
      </trkpt>
      <trkpt lat="48.59658" lon="1.96135">
        <ele>122.71</ele>
        <time>2017-09-19T09:24:34Z</time>
      </trkpt>
      <trkpt lat="48.59646" lon="1.96154">
        <ele>125.11</ele>
        <time>2017-09-19T09:24:45Z</time>
      </trkpt>
      <trkpt lat="48.59639" lon="1.96164">
        <ele>126.55</ele>
        <time>2017-09-19T09:24:52Z</time>
      </trkpt>
      <trkpt lat="48.59627" lon="1.96194">
        <ele>129.43</ele>
        <time>2017-09-19T09:25:08Z</time>
      </trkpt>
      <trkpt lat="48.59621" lon="1.96212">
        <ele>133.28</ele>
        <time>2017-09-19T09:25:17Z</time>
      </trkpt>
      <trkpt lat="48.59621" lon="1.96214">
        <ele>133.28</ele>
        <time>2017-09-19T09:25:18Z</time>
      </trkpt>
      <trkpt lat="48.59615" lon="1.96229">
        <ele>134.24</ele>
        <time>2017-09-19T09:25:26Z</time>
      </trkpt>
      <trkpt lat="48.59605" lon="1.96258">
        <ele>135.68</ele>
        <time>2017-09-19T09:25:38Z</time>
      </trkpt>
      <trkpt lat="48.59603" lon="1.96266">
        <ele>136.16</ele>
        <time>2017-09-19T09:25:42Z</time>
      </trkpt>
      <trkpt lat="48.59588" lon="1.96287">
        <ele>137.61</ele>
        <time>2017-09-19T09:25:57Z</time>
      </trkpt>
      <trkpt lat="48.59582" lon="1.96298">
        <ele>138.09</ele>
        <time>2017-09-19T09:26:12Z</time>
      </trkpt>
      <trkpt lat="48.59579" lon="1.96304">
        <ele>138.09</ele>
        <time>2017-09-19T09:26:31Z</time>
      </trkpt>
      <trkpt lat="48.59579" lon="1.96303">
        <ele>138.09</ele>
        <time>2017-09-19T09:26:56Z</time>
      </trkpt>
      <trkpt lat="48.59579" lon="1.96309">
        <ele>138.09</ele>
        <time>2017-09-19T09:27:13Z</time>
      </trkpt>
      <trkpt lat="48.59576" lon="1.96308">
        <ele>138.09</ele>
        <time>2017-09-19T09:27:30Z</time>
      </trkpt>
      <trkpt lat="48.59574" lon="1.96312">
        <ele>138.09</ele>
        <time>2017-09-19T09:27:33Z</time>
      </trkpt>
      <trkpt lat="48.59564" lon="1.9634">
        <ele>138.09</ele>
        <time>2017-09-19T09:27:49Z</time>
      </trkpt>
      <trkpt lat="48.59554" lon="1.96363">
        <ele>137.13</ele>
        <time>2017-09-19T09:28:04Z</time>
      </trkpt>
      <trkpt lat="48.59546" lon="1.96382">
        <ele>137.13</ele>
        <time>2017-09-19T09:28:17Z</time>
      </trkpt>
      <trkpt lat="48.59541" lon="1.96391">
        <ele>136.64</ele>
        <time>2017-09-19T09:28:23Z</time>
      </trkpt>
      <trkpt lat="48.59528" lon="1.96419">
        <ele>134.72</ele>
        <time>2017-09-19T09:28:39Z</time>
      </trkpt>
      <trkpt lat="48.59517" lon="1.96444">
        <ele>133.28</ele>
        <time>2017-09-19T09:28:54Z</time>
      </trkpt>
      <trkpt lat="48.59505" lon="1.96469">
        <ele>131.84</ele>
        <time>2017-09-19T09:29:10Z</time>
      </trkpt>
      <trkpt lat="48.59491" lon="1.96496">
        <ele>130.4</ele>
        <time>2017-09-19T09:29:25Z</time>
      </trkpt>
      <trkpt lat="48.5948" lon="1.96522">
        <ele>128.47</ele>
        <time>2017-09-19T09:29:39Z</time>
      </trkpt>
      <trkpt lat="48.5947" lon="1.96541">
        <ele>127.51</ele>
        <time>2017-09-19T09:29:51Z</time>
      </trkpt>
      <trkpt lat="48.59457" lon="1.96567">
        <ele>127.03</ele>
        <time>2017-09-19T09:30:06Z</time>
      </trkpt>
      <trkpt lat="48.59445" lon="1.96594">
        <ele>127.03</ele>
        <time>2017-09-19T09:30:21Z</time>
      </trkpt>
      <trkpt lat="48.59437" lon="1.96599">
        <ele>127.03</ele>
        <time>2017-09-19T09:30:29Z</time>
      </trkpt>
      <trkpt lat="48.5942" lon="1.96589">
        <ele>125.59</ele>
        <time>2017-09-19T09:30:42Z</time>
      </trkpt>
      <trkpt lat="48.59401" lon="1.96568">
        <ele>123.19</ele>
        <time>2017-09-19T09:30:57Z</time>
      </trkpt>
      <trkpt lat="48.59386" lon="1.96557">
        <ele>120.78</ele>
        <time>2017-09-19T09:31:09Z</time>
      </trkpt>
      <trkpt lat="48.59384" lon="1.96556">
        <ele>120.3</ele>
        <time>2017-09-19T09:31:11Z</time>
      </trkpt>
      <trkpt lat="48.59375" lon="1.9655">
        <ele>118.86</ele>
        <time>2017-09-19T09:31:21Z</time>
      </trkpt>
      <trkpt lat="48.59369" lon="1.96542">
        <ele>118.38</ele>
        <time>2017-09-19T09:31:25Z</time>
      </trkpt>
      <trkpt lat="48.59361" lon="1.96535">
        <ele>117.9</ele>
        <time>2017-09-19T09:31:29Z</time>
      </trkpt>
      <trkpt lat="48.59352" lon="1.96527">
        <ele>116.94</ele>
        <time>2017-09-19T09:31:36Z</time>
      </trkpt>
      <trkpt lat="48.59339" lon="1.96509">
        <ele>115.98</ele>
        <time>2017-09-19T09:31:49Z</time>
      </trkpt>
      <trkpt lat="48.59326" lon="1.96496">
        <ele>115.5</ele>
        <time>2017-09-19T09:31:58Z</time>
      </trkpt>
      <trkpt lat="48.5931" lon="1.96485">
        <ele>115.5</ele>
        <time>2017-09-19T09:32:10Z</time>
      </trkpt>
      <trkpt lat="48.59296" lon="1.96481">
        <ele>112.61</ele>
        <time>2017-09-19T09:32:22Z</time>
      </trkpt>
      <trkpt lat="48.59273" lon="1.96478">
        <ele>110.69</ele>
        <time>2017-09-19T09:32:35Z</time>
      </trkpt>
      <trkpt lat="48.59269" lon="1.96479">
        <ele>109.73</ele>
        <time>2017-09-19T09:32:39Z</time>
      </trkpt>
      <trkpt lat="48.59253" lon="1.96491">
        <ele>108.29</ele>
        <time>2017-09-19T09:32:52Z</time>
      </trkpt>
      <trkpt lat="48.5924" lon="1.96511">
        <ele>106.84</ele>
        <time>2017-09-19T09:33:03Z</time>
      </trkpt>
      <trkpt lat="48.59226" lon="1.96523">
        <ele>104.92</ele>
        <time>2017-09-19T09:33:14Z</time>
      </trkpt>
      <trkpt lat="48.59216" lon="1.96535">
        <ele>103</ele>
        <time>2017-09-19T09:33:27Z</time>
      </trkpt>
      <trkpt lat="48.59214" lon="1.96537">
        <ele>103</ele>
        <time>2017-09-19T09:33:29Z</time>
      </trkpt>
      <trkpt lat="48.59196" lon="1.96566">
        <ele>102.52</ele>
        <time>2017-09-19T09:33:45Z</time>
      </trkpt>
      <trkpt lat="48.59182" lon="1.96589">
        <ele>102.04</ele>
        <time>2017-09-19T09:33:59Z</time>
      </trkpt>
      <trkpt lat="48.59181" lon="1.96591">
        <ele>102.04</ele>
        <time>2017-09-19T09:34:00Z</time>
      </trkpt>
      <trkpt lat="48.59171" lon="1.96611">
        <ele>101.56</ele>
        <time>2017-09-19T09:34:14Z</time>
      </trkpt>
      <trkpt lat="48.59172" lon="1.96613">
        <ele>101.56</ele>
        <time>2017-09-19T09:34:33Z</time>
      </trkpt>
      <trkpt lat="48.59172" lon="1.96611">
        <ele>102.04</ele>
        <time>2017-09-19T09:34:49Z</time>
      </trkpt>
      <trkpt lat="48.59172" lon="1.9661">
        <ele>101.56</ele>
        <time>2017-09-19T09:35:07Z</time>
      </trkpt>
      <trkpt lat="48.59173" lon="1.9661">
        <ele>102.04</ele>
        <time>2017-09-19T09:35:28Z</time>
      </trkpt>
      <trkpt lat="48.59176" lon="1.96611">
        <ele>102.04</ele>
        <time>2017-09-19T09:35:43Z</time>
      </trkpt>
    </trkseg>
  </trk>
</gpx>